2018 ET Bracket Results
tibr_header.jpg
s5_logo-1.png

ID date series name name number class run type lane dial reaction time 60 ft time 330 ft time 1/8 mi time 1/8 mi speed 1000 ft time 1/4 mi time 1/4 mi speed win loss margin 60-330 split 330-660 split 660-1000 split 1000-1/4 split ambient temp barometric pressure relative humidity absolute density relative density effective altitude tail wind weather station
24165 9:34:52 AM STOCK ELIMINATOR Larry Gilley 4 E/SA T1 L 11.7 0.036 1.402 4.263 6.749 98.12 8.931 10.795 120.47 W 0.3247 2.861 2.486 2.182 1.864 61 29.93 78 99.6 99.6 155 2 KAPC elev: 15 ft
24166 9:34:52 AM STOCK ELIMINATOR Jared Jordan 7503 H/SA T1 R 12.15 0.042 1.421 4.376 6.941 95.15 9.191 11.113 116.65 L -0.3247 2.955 2.565 2.25 1.922 61 29.93 78 99.6 99.6 155 2 KAPC elev: 15 ft
24167 9:35:16 AM STOCK ELIMINATOR Karen Comstock 771C FS/E T1 L 10.95 0.086 1.915 8.109 11.51 84.25 13.743 15.501 129.69 L -4.2324 6.194 3.401 2.233 1.758 61 29.93 78 99.6 99.6 155 2 KAPC elev: 15 ft
24168 9:35:16 AM STOCK ELIMINATOR Cal Method 611 H/SA T1 R 12.15 0.029 1.435 4.434 7.054 92.97 9.355 11.326 113.71 W 4.2324 2.999 2.62 2.301 1.971 61 29.93 78 99.6 99.6 155 2 KAPC elev: 15 ft
24169 9:36:26 AM STOCK ELIMINATOR John Gray 7857 B/SA T1 L 11.25 0.017 1.455 4.436 7.026 94.18 9.298 11.244 115.08 L -0.9172 2.981 2.59 2.272 1.946 61 29.93 78 99.6 99.6 155 2 KAPC elev: 15 ft
24170 9:36:26 AM STOCK ELIMINATOR Jeff Jerome 7307 A/SA T1 R 11 0.049 1.346 4.127 6.485 103.68 8.54 10.295 127.88 W 0.9172 2.781 2.358 2.055 1.755 61 29.93 78 99.6 99.6 155 2 KAPC elev: 15 ft
24171 9:36:39 AM STOCK ELIMINATOR Rick Kolber 7341 E/SA T1 L 11.7 -0.019 1.479 4.471 7.131 91.53 9.577 12.022 87.21 L -1.1737 2.992 2.66 2.446 2.445 61 29.93 78 99.6 99.6 155 2 KAPC elev: 15 ft
24172 9:36:39 AM STOCK ELIMINATOR Don Keen 7797 C/S T1 R 11.35 0.086 1.425 4.324 6.793 99.33 8.93 10.744 123.7 W 1.1737 2.899 2.469 2.137 1.814 61 29.93 78 99.6 99.6 155 2 KAPC elev: 15 ft
24173 9:39:15 AM STOCK ELIMINATOR Norm Webber 6635 C/SA T1 L 11.4 0.007 1.387 4.189 6.589 101.85 8.686 10.479 125.05 L -0.4231 2.802 2.4 2.097 1.793 61 29.93 78 99.6 99.6 155 2 KAPC elev: 15 ft
24174 9:39:15 AM STOCK ELIMINATOR Gregg Luneack 7031 A/SA T1 R 11 -0.001 1.341 4.008 6.317 105.74 8.336 10.064 129.73 W 0.4231 2.667 2.309 2.019 1.728 61 29.93 78 99.6 99.6 155 2 KAPC elev: 15 ft
24175 9:40:02 AM STOCK ELIMINATOR Phil Mandella Jr 732 G/SA T1 L 12 0.032 1.48 4.462 7.049 94.32 9.315 11.253 115.75 W 0.5058 2.982 2.587 2.266 1.938 61 29.93 78 99.6 99.6 155 2 KAPC elev: 15 ft
24176 9:40:02 AM STOCK ELIMINATOR Earl Snow Sr 7945 I/SA T1 R 12.3 0.086 1.511 4.604 7.299 90.47 9.666 11.704 109.7 L -0.5058 3.093 2.695 2.367 2.038 61 29.93 78 99.6 99.6 155 2 KAPC elev: 15 ft
24178 9:40:59 AM STOCK ELIMINATOR Jody Lang 5 M/SA T1 R 12.85 -0.002 1.56 4.718 7.476 87.93 9.88 11.941 108.81 W 2.1768 3.158 2.758 2.404 2.061 61 29.93 78 99.6 99.6 155 2 KAPC elev: 15 ft
24177 9:40:59 AM STOCK ELIMINATOR B J Graham 7702 T/SA T1 L 14.4 0.109 1.919 5.659 8.846 76.72 11.626 14.006 94.1 L -2.1768 3.74 3.187 2.78 2.38 61 29.93 78 99.6 99.6 155 2 KAPC elev: 15 ft
24180 9:41:49 AM STOCK ELIMINATOR Nanette Stein 7022 O/SA T1 R 13.15 0.002 1.632 5.007 7.926 83.28 10.494 12.684 103.21 W 0.0206 3.375 2.919 2.568 2.19 61 29.93 78 99.6 99.6 155 2 KAPC elev: 15 ft
24179 9:41:49 AM STOCK ELIMINATOR Dwayne Scheitlin 5526 A/SA T1 L 11 -0.029 1.533 5.844 8.656 93.12 10.862 12.735 117.45 L -0.0206 4.311 2.812 2.206 1.873 61 29.93 78 99.6 99.6 155 2 KAPC elev: 15 ft
24181 9:42:30 AM STOCK ELIMINATOR Tom Ferruggia 7680 FS/C T1 L 10.3 0.024 1.318 3.827 5.974 114.14 7.84 9.429 141.3 W 1.3073 2.509 2.147 1.866 1.589 61 29.93 78 99.6 99.6 155 2 KAPC elev: 15 ft
24182 9:42:30 AM STOCK ELIMINATOR Jerry Stein 76 D/SA T1 R 11.55 0.051 1.353 4.195 6.668 98.66 8.842 10.709 120.05 L -1.3073 2.842 2.473 2.174 1.867 61 29.93 78 99.6 99.6 155 2 KAPC elev: 15 ft
24183 9:43:25 AM STOCK ELIMINATOR Richie Pauley 7593 C/SA T1 L 11.4 0.091 1.389 4.297 6.785 98.87 8.965 10.89 114.6 W 7.1843 2.908 2.488 2.18 1.925 61 29.93 78 99.6 99.6 155 2 KAPC elev: 15 ft
24184 9:43:25 AM STOCK ELIMINATOR Michael Hakkert 7965 B/SA T1 R 11.25 0.065 1.356 4.928 9.413 50.7 13.922 18.1 52.43 L -7.1843 3.572 4.485 4.509 4.178 61 29.93 78 99.6 99.6 155 2 KAPC elev: 15 ft
24186 9:44:03 AM STOCK ELIMINATOR Pete Lanciers 7801 E/SA T1 R 11.7 0.055 1.462 4.503 7.098 94.24 9.362 11.291 116.35 L -0.5708 3.041 2.595 2.264 1.929 61 29.93 78 99.6 99.6 155 2 KAPC elev: 15 ft
24185 9:44:03 AM STOCK ELIMINATOR Debbie Hewes 7961 D/SA T1 L 11.55 -0.092 1.453 4.352 6.838 98.34 9.012 10.868 120.87 W 0.5708 2.899 2.486 2.174 1.856 61 29.93 78 99.6 99.6 155 2 KAPC elev: 15 ft
24187 9:45:31 AM SUPER STREET Ryan Giacone 72 SST T0 L 10.9 0.003 1.721 5.347 7.616 115.06 9.396 10.859 154.95 W 0.0204 3.626 2.269 1.78 1.463 61 29.93 78 99.6 99.6 155 2 KAPC elev: 15 ft
24188 9:45:31 AM SUPER STREET   H730 SST T0 R 0 0.169 1.453 4.296 6.737 99.41 8.876 10.713 122.2 L -0.0204 2.843 2.441 2.139 1.837 61 29.93 78 99.6 99.6 155 2 KAPC elev: 15 ft
24190 9:46:02 AM SUPER STREET Val Torres 7809 SST T0 R 10.9 0.028 1.663 4.593 7.044 99.66 9.188 11.076 117.91 L -0.1288 2.93 2.451 2.144 1.888 61 29.93 78 99.6 99.6 155 2 KAPC elev: 15 ft
24189 9:46:02 AM SUPER STREET Ryan Giacone 72 SST T0 L 10.9 0.029 1.631 4.817 7.205 104.5 9.229 10.947 130.82 W 0.1288 3.186 2.388 2.024 1.718 61 29.93 78 99.6 99.6 155 2 KAPC elev: 15 ft
24191 9:47:12 AM SUPER STREET Gary Hardee 7042 SST T0 L 10.9 -0.003 1.609 4.828 7.212 104.81 9.219 10.909 133.63 L -0.0071 3.219 2.384 2.007 1.69 61 29.93 78 99.6 99.6 155 2 KAPC elev: 15 ft
24192 9:47:12 AM SUPER STREET   7750 SST T0 R 0 -0.019 1.647 4.874 7.223 105.67 9.226 10.918 132.97 W 0.0071 3.227 2.349 2.003 1.692 61 29.93 78 99.6 99.6 155 2 KAPC elev: 15 ft
24194 9:48:01 AM SUPER STREET Ron Schiel 6311 SST T0 R 10.9 0.201 1.488 5.076 7.551 108.59 9.414 10.931 149.68 L -0.1328 3.588 2.475 1.863 1.517 61 29.93 78 99.6 99.6 155 2 KAPC elev: 15 ft
24193 9:48:01 AM SUPER STREET   6931 SST T0 L 0 0.064 1.824 5.209 7.462 111.54 9.346 10.936 141.47 W 0.1328 3.385 2.253 1.884 1.59 61 29.93 78 99.6 99.6 155 2 KAPC elev: 15 ft
24195 9:48:44 AM SUPER STREET David Adams 739 SST T0 L 10.9 0.038 1.686 5.073 7.342 113.08 9.177 10.709 147.23 W 0.1006 3.387 2.269 1.835 1.532 61 29.93 78 99.6 99.6 155 2 KAPC elev: 15 ft
24196 9:48:44 AM SUPER STREET   714B SST T0 R 0 -0.027 1.666 4.852 7.222 105.2 9.204 10.874 134.78 L -0.1006 3.186 2.37 1.982 1.67 61 29.93 78 99.6 99.6 155 2 KAPC elev: 15 ft
24197 9:49:18 AM SUPER STREET Harlan Tucker 78 SST T0 L 10.9 -0.072 1.469 4.736 7.152 105.54 9.123 10.78 131.95 W 0.1532 3.267 2.416 1.971 1.657 61 29.93 78 99.6 99.6 155 2 KAPC elev: 15 ft
24198 9:49:18 AM SUPER STREET Dan Bain 7159 SST T0 R 10.9 0.012 1.659 4.81 7.16 104.03 9.145 10.849 129.45 L -0.1532 3.151 2.35 1.985 1.704 61 29.93 78 99.6 99.6 155 2 KAPC elev: 15 ft
24199 9:50:01 AM SUPER STREET Don Riley 711R SST T0 L 10.9 0.048 1.999 5.459 7.71 113.09 9.549 11.081 147.21 W 0.1238 3.46 2.251 1.839 1.532 61 29.93 78 99.6 99.6 155 2 KAPC elev: 15 ft
24200 9:50:01 AM SUPER STREET   JJ703 SST T0 R 0 0.04 1.65 4.688 7.179 98.34 9.35 11.212 120.27 L -0.1238 3.038 2.491 2.171 1.862 61 29.93 78 99.6 99.6 155 2 KAPC elev: 15 ft
24201 9:50:40 AM SUPER STREET Mark Simonian 706H SST T0 L 10.9 0.006 2.038 5.061 7.256 113.7 9.111 10.672 144.4 L -1.0665 3.023 2.195 1.855 1.561 61 29.93 78 99.6 99.6 155 2 KAPC elev: 15 ft
24202 9:50:40 AM SUPER STREET Kenny Snow 751X SST T0 R 10.9 -0.013 1.355 3.895 6.072 112.2 7.981 9.625 136.03 W 1.0665 2.54 2.177 1.909 1.644 61 29.93 78 99.6 99.6 155 2 KAPC elev: 15 ft
24203 9:51:17 AM SUPER STREET Jeff Broussard 700 SST T0 R 10.9 0.186 2.133 5.288 7.879 93.73 10.123 12.03 118.29 W 0 3.155 2.591 2.244 1.907 61 29.93 78 99.6 99.6 155 2 KAPC elev: 15 ft
24205 9:52:28 AM SUPER COMP Michaelyn Roelle 7786 SC T0 R 8.9 0.023 1.95 4.605 6.314 147.12 7.735 8.924 189.71 L -0.0003 2.655 1.709 1.421 1.189 61 29.93 78 99.6 99.6 155 2 KAPC elev: 15 ft
24204 9:52:28 AM SUPER COMP Glenn Kern 7280 SC T0 L 8.9 0.021 1.188 3.996 5.996 128.76 7.599 8.926 170.49 W 0.0003 2.808 2 1.603 1.327 61 29.93 78 99.6 99.6 155 2 KAPC elev: 15 ft
24206 9:53:22 AM SUPER COMP Kevin Romfo 7719 SC T0 L 8.9 0.06 1.334 4.024 5.925 131.61 7.524 8.873 166.7 W 0.3502 2.69 1.901 1.599 1.349 61 29.93 78 99.6 99.6 155 2 KAPC elev: 15 ft
24207 9:53:22 AM SUPER COMP Jason Rosenbaum 775T SC T0 R 8.9 0.033 1.609 4.203 6.166 126.91 7.835 9.25 158.86 L -0.3502 2.594 1.963 1.669 1.415 61 29.93 78 99.6 99.6 155 2 KAPC elev: 15 ft
24209 9:54:12 AM SUPER COMP John Randell 7911 SC T0 R 8.9 0.009 1.316 3.608 5.498 130.05 7.137 8.535 160.82 W 0.4259 2.292 1.89 1.639 1.398 61 29.93 78 99.6 99.6 155 2 KAPC elev: 15 ft
24208 9:54:12 AM SUPER COMP Bob Van Popering 7035 SC T0 L 8.9 0.069 1.419 4.1 6.002 132.59 7.58 8.9 170.92 L -0.4259 2.681 1.902 1.578 1.32 61 29.93 78 99.6 99.6 155 2 KAPC elev: 15 ft
24210 9:55:13 AM SUPER COMP Ed Cox 6317 SC T0 L 8.9 -0.099 1.329 4.185 6.106 132.37 7.68 8.992 171.9 W 0.0861 2.856 1.921 1.574 1.312 61 29.93 78 99.6 99.6 155 2 KAPC elev: 15 ft
24211 9:55:13 AM SUPER COMP Cody Webber 7125 SC T0 R 8.9 0.059 1.513 4.273 6.112 137.18 7.639 8.92 176.24 L -0.0861 2.76 1.839 1.527 1.281 61 29.93 78 99.6 99.6 155 2 KAPC elev: 15 ft
24213 9:56:20 AM SUPER COMP Lori Warden 7116 SC T0 R 8.9 -0.011 1.562 4.307 6.202 132.57 7.786 9.119 169.42 L -0.0772 2.745 1.895 1.584 1.333 61 29.93 78 99.6 99.6 155 2 KAPC elev: 15 ft
24212 9:56:20 AM SUPER COMP James Warden 7168 SC T0 L 8.9 0 1.378 4.188 6.123 131.65 7.708 9.031 170.02 W 0.0772 2.81 1.935 1.585 1.323 61 29.93 78 99.6 99.6 155 2 KAPC elev: 15 ft
24214 9:57:19 AM SUPER COMP Paige Lundeen 7600 SC T0 L 8.9 0.023 1.518 4.226 6.035 139.47 7.544 8.818 176.44 W 0.1602 2.708 1.809 1.509 1.274 61 29.93 78 99.6 99.6 155 2 KAPC elev: 15 ft
24215 9:57:19 AM SUPER COMP   70287 SC T0 R 0 0.04 1.385 4.354 6.188 138.81 7.691 8.961 176.37 L -0.1602 2.969 1.834 1.503 1.27 61 29.93 78 99.6 99.6 155 2 KAPC elev: 15 ft
24216 9:58:25 AM SUPER COMP Madison Whitten 7296 SC T0 L 8.9 0.069 1.457 4.286 6.164 135.36 7.705 8.992 175.25 W 0 2.829 1.878 1.541 1.287 61 29.93 78 99.6 99.6 155 2 KAPC elev: 15 ft
24218 9:59:14 AM SUPER COMP George Garbiso 785 SC T0 R 8.9 0.054 1.352 3.96 5.783 138.13 7.307 8.597 174.1 W 0.3231 2.608 1.823 1.524 1.29 61 29.93 78 99.6 99.6 155 2 KAPC elev: 15 ft
24217 9:59:14 AM SUPER COMP Chad Webber 7209 SC T0 L 8.9 0.02 1.498 4.228 6.094 135.04 7.648 8.954 172.21 L -0.3231 2.73 1.866 1.554 1.306 61 29.93 78 99.6 99.6 155 2 KAPC elev: 15 ft
24220 10:00:17 AM SUPER COMP Greg Boutte 76 SC T0 R 8.9 0.018 1.377 4.068 5.985 131.51 7.58 8.92 168.75 L -0.0772 2.691 1.917 1.595 1.34 61 29.93 78 99.6 99.6 155 2 KAPC elev: 15 ft
24219 10:00:17 AM SUPER COMP     SC T0 L 0 0.058 1.458 4.219 6.037 139.07 7.541 8.803 178.21 W 0.0772 2.761 1.818 1.504 1.262 61 29.93 78 99.6 99.6 155 2 KAPC elev: 15 ft
24221 10:01:58 AM SUPER COMP Peyton Januik 7212 SC T0 L 8.9 0.019 1.715 4.83 6.688 139.23 8.178 9.422 180.94 L -1.3407 3.115 1.858 1.49 1.244 61 29.93 78 99.6 99.6 155 2 KAPC elev: 15 ft
24222 10:01:58 AM SUPER COMP Justin Rebrovich 7603 SC T0 R 8.9 0.022 1.126 3.306 5.146 133.67 6.735 8.079 167.76 W 1.3407 2.18 1.84 1.589 1.344 61 29.93 78 99.6 99.6 155 2 KAPC elev: 15 ft
24223 10:02:54 AM SUPER COMP Greg Krause 569 SC T0 R 8.9 0.038 1.254 3.65 5.622 108.61 8.029 10.597 80.99 W 0 2.396 1.972 2.407 2.568 64 29.93 70 99 99.1 355 2 KAPC elev: 15 ft
24224 10:03:42 AM SUPER COMP Nicholas Saetes C793 SC T0 L 8.9 0.007 1.333 3.789 5.637 134.64 7.208 8.537 168.89 W 0.3707 2.456 1.848 1.571 1.329 64 29.93 70 99 99.1 355 2 KAPC elev: 15 ft
24225 10:03:42 AM SUPER COMP Marko Perivolaris 6 SC T0 R 8.9 0.008 1.492 4.357 6.196 140.4 7.673 8.906 182.6 L -0.3707 2.865 1.839 1.477 1.233 64 29.93 70 99 99.1 355 2 KAPC elev: 15 ft
24226 10:04:35 AM SUPER COMP Allison McKoane 7002 SC T0 R 8.9 0.025 1.536 4.323 6.123 141.09 7.601 8.84 182.13 W 0 2.787 1.8 1.478 1.239 64 29.93 70 99 99.1 355 2 KAPC elev: 15 ft
24228 10:05:45 AM SUPER STREET Mel LeForbes 7687 SST T0 R 10.9 -0.02 1.599 4.946 7.364 107.39 9.282 10.874 141.08 W 6.0787 3.347 2.418 1.918 1.592 64 29.93 70 99 99.1 355 2 KAPC elev: 15 ft
24227 10:05:45 AM SUPER STREET   M773 SST T0 L 0 0.043 1.452 4.984 11.019 34.6 18.375 26.889 23.26 L -6.0787 3.532 6.035 7.356 8.514 64 29.93 70 99 99.1 355 2 KAPC elev: 15 ft
24229 10:08:59 AM SUPER COMP   7117 SC T0 L 0 0.859 1.277 3.592 5.546 125.41 7.253 8.719 152.26 W 0 2.315 1.954 1.707 1.466 64 29.93 70 99 99.1 355 2 KAPC elev: 15 ft
24230 10:10:02 AM SUPER STOCK Mike Graham 7702 GT/KA T0 L 10.9 0.209 1.403 3.946 6.062 115.53 7.908 9.468 144.38 W 0.5618 2.543 2.116 1.846 1.56 64 29.93 70 99 99.1 355 2 KAPC elev: 15 ft
24231 10:10:02 AM SUPER STOCK John Cantlay 7004 SS/CM T0 R 9.5 0.031 1.32 4.06 6.394 104.51 8.443 10.207 126.73 L -0.5618 2.74 2.334 2.049 1.764 64 29.93 70 99 99.1 355 2 KAPC elev: 15 ft
24232 10:10:44 AM SUPER STOCK Douglas Colley 7922 SS/VX T0 L 11.6 -0.064 1.587 4.644 7.19 96.85 9.434 11.345 115.43 L -1.0575 3.057 2.546 2.244 1.911 64 29.93 70 99 99.1 355 2 KAPC elev: 15 ft
24233 10:10:44 AM SUPER STOCK   5009 B/SA T0 R 0 0.052 1.303 4.008 6.353 103.91 8.41 10.172 127.33 W 1.0575 2.705 2.345 2.057 1.762 64 29.93 70 99 99.1 355 2 KAPC elev: 15 ft
24235 10:11:08 AM SUPER STOCK Randy Loge 78 SS/KA T0 R 11.25 0.039 1.348 4.207 6.676 98.7 8.843 10.686 122.12 L -0.1723 2.859 2.469 2.167 1.843 64 29.93 70 99 99.1 355 2 KAPC elev: 15 ft
24234 10:11:08 AM SUPER STOCK Jon Irving 7111 SS/MA T0 L 11.85 -0.01 1.403 4.226 6.645 101.16 8.758 10.563 124.3 W 0.1723 2.823 2.419 2.113 1.805 64 29.93 70 99 99.1 355 2 KAPC elev: 15 ft
24236 10:12:09 AM SUPER STOCK Rich Pinoski 734 GT/JA T0 L 10.8 0.027 1.464 4.035 6.366 104.65 8.411 10.167 127.57 W 0.2571 2.571 2.331 2.045 1.756 64 29.93 70 99 99.1 355 2 KAPC elev: 15 ft
24237 10:12:09 AM SUPER STOCK Don Keen 75 SS/KA T0 R 11.25 0.018 1.388 4.158 6.549 102.06 8.643 10.433 125.45 L -0.2571 2.77 2.391 2.094 1.79 64 29.93 70 99 99.1 355 2 KAPC elev: 15 ft
24239 10:13:16 AM SPORTSMAN MOTORCYCLE Pete Miclette Jr 7001 SMC T0 R 0 0.009 1.319 3.599 5.559 124.13 7.286 8.782 150.53 W 3.2044 2.28 1.96 1.727 1.496 64 29.93 70 99 99.1 355 2 KAPC elev: 15 ft
24238 10:13:16 AM SPORTSMAN MOTORCYCLE   754 SMC T0 L 0 0.06 2.829 5.883 8.183 106.96 10.195 11.935 126.65 L -3.2044 3.054 2.3 2.012 1.74 64 29.93 70 99 99.1 355 2 KAPC elev: 15 ft
24241 10:14:04 AM SPORTSMAN MOTORCYCLE Eric Jaquith 72 SMC T0 R 0 0.162 1.463 3.98 6.152 112.94 8.049 9.687 134.75 L -1.3592 2.517 2.172 1.897 1.638 64 29.93 70 99 99.1 355 2 KAPC elev: 15 ft
24240 10:14:04 AM SPORTSMAN MOTORCYCLE   61 SMC T0 L 0 0.071 1.279 3.43 5.303 129.98 6.972 8.419 154.14 W 1.3592 2.151 1.873 1.669 1.447 64 29.93 70 99 99.1 355 2 KAPC elev: 15 ft
24243 10:14:57 AM SPORTSMAN MOTORCYCLE Ron Alves 73 SMC T0 R 0 0.051 1.246 3.353 5.159 134.9 6.765 8.155 165.74 W 0.6661 2.107 1.806 1.606 1.39 64 29.93 70 99 99.1 355 2 KAPC elev: 15 ft
24242 10:14:57 AM SPORTSMAN MOTORCYCLE Jordan Miclette 7010 SMC T0 L 0 0.028 1.276 3.589 5.57 122.87 7.325 8.844 147.28 L -0.6661 2.313 1.981 1.755 1.519 64 29.93 70 99 99.1 355 2 KAPC elev: 15 ft
24244 10:16:50 AM SPORTSMAN MOTORCYCLE Anthony Vanetti 330 SMC T0 L 0 0.239 1.213 3.515 5.392 130.38 7.034 8.442 158.73 W 8.3975 2.302 1.877 1.642 1.408 64 29.93 70 99 99.1 355 2 KAPC elev: 15 ft
24245 10:16:50 AM SPORTSMAN MOTORCYCLE     SMC T0 R 0 0.284 5.623 0 0 0 0 0 0 L -8.3975 0 0 0 0 64 29.93 70 99 99.1 355 2 KAPC elev: 15 ft
24246 10:18:09 AM TOP DRAGSTER Greg Holman 769 TD T0 L 0 0.043 1.025 2.696 4.086 175.73 5.352 6.655 160.12 L -0.184 1.671 1.39 1.266 1.303 64 29.93 70 99 99.1 355 2 KAPC elev: 15 ft
24247 10:18:09 AM TOP DRAGSTER Art Hoover 7102 TD T0 R 0 0.041 0.986 2.697 4.135 170.51 5.392 6.473 207.02 W 0.184 1.711 1.438 1.257 1.081 64 29.93 70 99 99.1 355 2 KAPC elev: 15 ft
24248 10:22:52 AM TOP DRAGSTER Brianna Wiens 7902 TD T0 L 0 0.04 1 2.825 4.374 158.58 5.723 6.88 193.27 W 0.4967 1.825 1.549 1.349 1.157 64 29.93 70 99 99.1 355 2 KAPC elev: 15 ft
24249 10:22:52 AM TOP DRAGSTER   7074 TD T0 R 0 -0.019 1.182 3.173 4.811 150.33 6.227 7.435 185.84 L -0.4967 1.991 1.638 1.416 1.208 64 29.93 70 99 99.1 355 2 KAPC elev: 15 ft
24251 10:24:27 AM TOP DRAGSTER Jack Sadler 7194 TD T0 R 0 0.007 1.006 2.711 4.148 168.26 5.379 6.432 213.03 W 0.2323 1.705 1.437 1.231 1.053 64 29.93 70 99 99.1 355 2 KAPC elev: 15 ft
24250 10:24:27 AM TOP DRAGSTER Andy Spiegel 7160 TD T0 L 0 0.024 1.007 2.753 4.236 165.03 5.532 6.647 200.14 L -0.2323 1.746 1.483 1.296 1.115 64 29.93 70 99 99.1 355 2 KAPC elev: 15 ft
24253 10:25:24 AM SUPER GAS Larry Scarth 7267 SG T0 R 9.9 0.082 1.463 4.663 6.813 121.23 8.492 9.88 162.84 L -0.0835 3.2 2.15 1.679 1.388 64 29.93 70 99 99.1 355 2 KAPC elev: 15 ft
24252 10:25:24 AM SUPER GAS Doug Romfo 7216 SG T0 L 9.9 0.028 1.823 4.872 6.854 127.91 8.486 9.851 164.89 W 0.0835 3.049 1.982 1.632 1.365 64 29.93 70 99 99.1 355 2 KAPC elev: 15 ft
24254 10:26:21 AM SUPER GAS Roger Kato 7117 SG T0 L 9.9 0.024 1.718 5.112 7.118 129.12 8.703 9.997 175.09 L -1.2302 3.394 2.006 1.585 1.294 64 29.93 70 99 99.1 355 2 KAPC elev: 15 ft
24255 10:26:21 AM SUPER GAS Janice Hogan 7186 SG T0 R 9.9 0.095 1.274 3.597 5.541 125.59 7.237 8.696 153.11 W 1.2302 2.323 1.944 1.696 1.459 64 29.93 70 99 99.1 355 2 KAPC elev: 15 ft
24256 10:27:13 AM SUPER GAS Pete Zak 701P SG T0 L 9.9 0.065 1.422 4.636 6.744 122.82 8.417 9.794 164.59 L -0.0211 3.214 2.108 1.673 1.377 64 29.93 70 99 99.1 355 2 KAPC elev: 15 ft
24257 10:27:13 AM SUPER GAS   7034 SG T0 R 0 0.017 1.491 4.592 6.72 121.4 8.417 9.821 160.94 W 0.0211 3.101 2.128 1.697 1.404 64 29.93 70 99 99.1 355 2 KAPC elev: 15 ft
24258 10:27:47 AM SUPER GAS Ken Mostowich 6173 SG T0 L 9.9 0.022 1.665 4.795 6.833 126.36 8.451 9.784 169.51 L -0.5098 3.13 2.038 1.618 1.333 64 29.93 70 99 99.1 355 2 KAPC elev: 15 ft
24259 10:27:47 AM SUPER GAS Ed DeStaute 716 SG T0 R 9.9 0.011 1.28 3.766 5.877 116.07 7.715 9.286 142.78 W 0.5098 2.486 2.111 1.838 1.571 64 29.93 70 99 99.1 355 2 KAPC elev: 15 ft
24261 10:28:41 AM SUPER GAS Richard Stone 7558 SG T0 R 9.9 0.013 1.523 4.514 6.652 118.3 8.418 9.897 152.43 W 0.0125 2.991 2.138 1.766 1.479 64 29.93 70 99 99.1 355 2 KAPC elev: 15 ft
24260 10:28:41 AM SUPER GAS   7575 SG T0 L 0 0.04 1.508 4.739 6.823 123.14 8.499 9.882 163.83 L -0.0125 3.231 2.084 1.676 1.383 64 29.93 70 99 99.1 355 2 KAPC elev: 15 ft
24262 10:29:28 AM SUPER GAS John Parrino 7592 SG T0 L 9.9 1.013 2.705 6.036 8.611 97.86 10.703 12.416 132.8 L -3.6336 3.331 2.575 2.092 1.713 64 29.93 70 99 99.1 355 2 KAPC elev: 15 ft
24263 10:29:28 AM SUPER GAS Joe Greco 7138 SG T0 R 9.9 -0.025 1.466 4.555 6.703 120.13 8.411 9.821 160.52 W 3.6336 3.089 2.148 1.708 1.41 64 29.93 70 99 99.1 355 2 KAPC elev: 15 ft
24265 10:30:34 AM SUPER GAS Rick Beckstrom 731 SG T0 R 9.9 0.02 1.393 4.614 6.779 121.54 8.405 9.733 170.99 W 0.3894 3.221 2.165 1.626 1.328 64 29.93 70 99 99.1 355 2 KAPC elev: 15 ft
24264 10:30:34 AM SUPER GAS   7254 SG T0 L 0 0.105 1.736 4.81 6.89 121.13 8.608 10.037 157.89 L -0.3894 3.074 2.08 1.718 1.429 64 29.93 70 99 99.1 355 2 KAPC elev: 15 ft
24266 10:31:13 AM SUPER GAS Randy Cloud 7163 SG T0 L 9.9 0.039 1.412 4.301 6.525 112.48 8.395 9.973 142.55 L -0.0881 2.889 2.224 1.87 1.578 64 29.93 70 99 99.1 355 2 KAPC elev: 15 ft
24267 10:31:13 AM SUPER GAS Peter Bothe 7019 SG T0 R 9.9 0.019 1.539 4.475 6.609 117.26 8.4 9.905 149.66 W 0.0881 2.936 2.134 1.791 1.505 64 29.93 70 99 99.1 355 2 KAPC elev: 15 ft
24268 10:31:42 AM SUPER GAS Ted Seipel 7829 SG T0 L 9.9 0.037 1.404 4.101 6.307 111.13 8.237 9.926 132.05 L -0.0827 2.697 2.206 1.93 1.689 64 29.93 70 99 99.1 355 2 KAPC elev: 15 ft
24269 10:31:42 AM SUPER GAS Marko Perivolaris 7585 SG T0 R 9.9 -0.012 1.672 4.877 6.975 126.47 8.581 9.893 172.81 W 0.0827 3.205 2.098 1.606 1.312 64 29.93 70 99 99.1 355 2 KAPC elev: 15 ft
24270 10:32:39 AM SUPER GAS Mark Yeager 7638 SG T0 L 9.9 0.025 1.595 4.826 6.976 118.52 8.725 10.179 155.49 W 0.0355 3.231 2.15 1.749 1.454 64 29.93 70 99 99.1 355 2 KAPC elev: 15 ft
24271 10:32:39 AM SUPER GAS   7000 SG T0 R 0 0.177 1.676 4.948 7.014 124.01 8.681 10.062 164.43 L -0.0355 3.272 2.066 1.667 1.381 64 29.93 70 99 99.1 355 2 KAPC elev: 15 ft
24272 10:33:41 AM SUPER GAS Mike Collins 7779 SG T0 L 9.9 0.049 1.496 4.909 7.269 106.03 9.262 10.959 131.1 L -0.9905 3.413 2.36 1.993 1.697 64 29.93 70 99 99.1 355 2 KAPC elev: 15 ft
24273 10:33:41 AM SUPER GAS Linzi Theobald Meserve 752T SG T0 R 9.9 0.007 1.886 4.998 6.992 126.98 8.634 10.011 163.08 W 0.9905 3.112 1.994 1.642 1.377 64 29.93 70 99 99.1 355 2 KAPC elev: 15 ft
24274 10:35:39 AM SUPER GAS Mike Willoughby 745 SG T0 R 9.9 0.042 1.62 4.846 6.908 124.98 8.536 9.883 168.05 W 0 3.226 2.062 1.628 1.347 64 29.93 70 99 99.1 355 2 KAPC elev: 15 ft
24275 10:37:45 AM SUPER GAS Larry Bradshaw 7332 SG T0 R 9.9 -0.066 1.612 4.874 7.016 121.51 8.7 10.088 163.2 W 0 3.262 2.142 1.684 1.388 64 29.93 70 99 99.1 355 2 KAPC elev: 15 ft
24277 10:39:32 AM TOP SPORTSMAN Chris Esrick 7398 TS T0 R 0 0.008 1.14 3.188 4.856 147.75 6.295 7.527 182.08 W 0.1466 2.048 1.668 1.439 1.232 64 29.93 70 99 99.1 355 2 KAPC elev: 15 ft
24276 10:39:32 AM TOP SPORTSMAN   791R TS T0 L 0 0.009 1.129 3.239 4.941 143.51 6.418 7.672 179.18 L -0.1466 2.11 1.702 1.477 1.254 64 29.93 70 99 99.1 355 2 KAPC elev: 15 ft
24278 10:55:54 AM TOP SPORTSMAN Randy Balough 717 TS T0 L 0 0.554 1.067 3.042 4.665 150.75 6.273 7.927 127.35 L -1.9766 1.975 1.623 1.608 1.654 64 29.93 70 99 99.1 355 2 KAPC elev: 15 ft
24279 10:55:54 AM TOP SPORTSMAN Paul Snell 6541 TS T0 R 0 0.041 1.023 2.825 4.244 172.85 5.447 6.464 221.09 W 1.9766 1.802 1.419 1.203 1.017 64 29.93 70 99 99.1 355 2 KAPC elev: 15 ft
24280 10:57:14 AM TOP SPORTSMAN Keith White 7149 TS T0 L 0 -0.003 1.107 3.001 4.636 147.96 6.085 7.328 179.33 L -0.5001 1.894 1.635 1.449 1.243 68 29.94 70 98.3 98.4 600 4 KAPC elev: 15 ft
24281 10:57:14 AM TOP SPORTSMAN Chris Newman 7598 TS T0 R 0 0.045 1.004 2.837 4.356 162.31 5.664 6.78 200.92 W 0.5001 1.833 1.519 1.308 1.116 68 29.94 70 98.3 98.4 600 4 KAPC elev: 15 ft
24282 10:58:43 AM TOP SPORTSMAN Raul Perez 721P TS T0 L 0 0.028 1.05 2.994 4.577 156.48 5.925 7.062 197.94 L -0.1325 1.944 1.583 1.348 1.137 68 29.94 70 98.3 98.4 600 4 KAPC elev: 15 ft
24283 10:58:43 AM TOP SPORTSMAN   7894 TS T0 R 0 -0.002 1.027 2.922 4.488 157.74 5.828 6.96 198.96 W 0.1325 1.895 1.566 1.34 1.132 68 29.94 70 98.3 98.4 600 4 KAPC elev: 15 ft
24284 10:59:49 AM TOP SPORTSMAN Kelly Harper 77 TS T0 L 0 0.094 1.024 2.92 4.504 155.63 5.87 7.031 193.46 W 0 1.896 1.584 1.366 1.161 68 29.94 70 98.3 98.4 600 4 KAPC elev: 15 ft
24285 11:01:38 AM TOP SPORTSMAN Sam Blaylock 7070 TS T0 R 0 0.8 1.153 4.464 6.491 130.62 8.053 9.463 152.04 W 0 3.311 2.027 1.562 1.41 68 29.94 70 98.3 98.4 600 4 KAPC elev: 15 ft
24286 11:03:32 AM TOP SPORTSMAN Bryan LaFlam 730 TS T0 R 0 0.86 1 2.665 3.994 185.46 5.132 6.095 233.03 W 0 1.665 1.329 1.138 0.963 68 29.94 70 98.3 98.4 600 4 KAPC elev: 15 ft
24287 11:04:27 AM STOCK ELIMINATOR Mike Cotten 4688 G/SA T2 L 12 0.051 1.441 4.354 6.875 96.96 9.07 10.934 120.49 L -0.7023 2.913 2.521 2.195 1.864 68 29.94 70 98.3 98.4 600 4 KAPC elev: 15 ft
24288 11:04:27 AM STOCK ELIMINATOR Jeff Jerome 7307 A/SA T2 R 11 0.048 1.353 4.123 6.463 104.63 8.499 10.235 129.27 W 0.7023 2.77 2.34 2.036 1.736 68 29.94 70 98.3 98.4 600 4 KAPC elev: 15 ft
24289 11:05:06 AM STOCK ELIMINATOR Jared Jordan 7503 H/SA T2 L 12.15 0.039 1.467 4.496 7.118 93.22 9.407 11.358 115.02 L -0.1379 3.029 2.622 2.289 1.951 68 29.94 70 98.3 98.4 600 4 KAPC elev: 15 ft
24290 11:05:06 AM STOCK ELIMINATOR Cal Method 611 H/SA T2 R 12.15 0.067 1.426 4.392 6.98 94.19 9.249 11.193 115.29 W 0.1379 2.966 2.588 2.269 1.944 68 29.94 70 98.3 98.4 600 4 KAPC elev: 15 ft
24291 11:05:48 AM STOCK ELIMINATOR Norm Webber 6635 C/SA T2 L 11.4 0.044 1.492 4.317 6.758 97.27 9.123 11.399 94.22 W 0.6896 2.825 2.441 2.365 2.276 68 29.94 70 98.3 98.4 600 4 KAPC elev: 15 ft
24292 11:05:48 AM STOCK ELIMINATOR Jody Lang 5 M/SA T2 R 12.85 0.024 1.599 4.811 7.598 87.69 10.031 12.108 108.17 L -0.6896 3.212 2.787 2.433 2.077 68 29.94 70 98.3 98.4 600 4 KAPC elev: 15 ft
24294 11:06:31 AM STOCK ELIMINATOR Larry Gilley 4 E/SA T2 R 11.7 0.048 1.408 4.267 6.741 98.64 8.905 10.746 122.03 W 0.2934 2.859 2.474 2.164 1.841 68 29.94 70 98.3 98.4 600 4 KAPC elev: 15 ft
24293 11:06:31 AM STOCK ELIMINATOR Karen Comstock 771C FS/E T2 L 10.95 0.092 1.41 5.027 7.491 106.45 9.416 10.995 143.75 L -0.2934 3.617 2.464 1.925 1.579 68 29.94 70 98.3 98.4 600 4 KAPC elev: 15 ft
24296 11:07:26 AM STOCK ELIMINATOR Nanette Stein 7022 O/SA T2 R 13.15 0.128 1.632 4.992 7.899 83.93 10.437 12.592 104.35 L -2.7043 3.36 2.907 2.538 2.155 68 29.94 70 98.3 98.4 600 4 KAPC elev: 15 ft
24295 11:07:26 AM STOCK ELIMINATOR Gregg Luneack 7031 A/SA T2 L 11 0.007 1.337 4.002 6.3 106.45 8.302 10.009 131.34 W 2.7043 2.665 2.298 2.002 1.707 68 29.94 70 98.3 98.4 600 4 KAPC elev: 15 ft
24298 11:08:14 AM STOCK ELIMINATOR Tom Ferruggia 7680 FS/C T2 R 10.3 0.052 1.299 3.771 5.892 115.35 7.738 9.309 143.14 W 1.9371 2.472 2.121 1.846 1.571 68 29.94 70 98.3 98.4 600 4 KAPC elev: 15 ft
24297 11:08:14 AM STOCK ELIMINATOR Phil Mandella Jr 732 G/SA T2 L 12 0.073 1.485 4.467 7.045 94.67 9.301 11.225 116.68 L -1.9371 2.982 2.578 2.256 1.924 68 29.94 70 98.3 98.4 600 4 KAPC elev: 15 ft
24300 11:08:59 AM STOCK ELIMINATOR Dwayne Scheitlin 5526 A/SA T2 R 11 0.059 1.312 3.985 6.285 106.42 8.289 10 131.08 W 3.6688 2.673 2.3 2.004 1.711 68 29.94 70 98.3 98.4 600 4 KAPC elev: 15 ft
24299 11:08:59 AM STOCK ELIMINATOR B J Graham 7702 T/SA T2 L 14.4 0.017 1.756 5.441 8.594 77.66 11.344 13.71 94.57 L -3.6688 3.685 3.153 2.75 2.366 68 29.94 70 98.3 98.4 600 4 KAPC elev: 15 ft
24301 11:09:44 AM STOCK ELIMINATOR John Gray 7857 B/SA T2 L 11.25 -0.033 1.456 4.426 6.997 94.94 9.246 11.166 116.68 L -0.2555 2.97 2.571 2.249 1.92 68 29.94 70 98.3 98.4 600 4 KAPC elev: 15 ft
24302 11:09:44 AM STOCK ELIMINATOR Debbie Hewes 7961 D/SA T2 R 11.55 0.066 1.45 4.338 6.813 98.86 8.972 10.812 122.23 W 0.2555 2.888 2.475 2.159 1.84 68 29.94 70 98.3 98.4 600 4 KAPC elev: 15 ft
24303 11:10:26 AM STOCK ELIMINATOR Rick Kolber 7341 E/SA T2 L 11.7 -0.033 1.425 4.288 6.756 98.94 8.913 10.749 122.6 L -0.0683 2.863 2.468 2.157 1.836 68 29.94 70 98.3 98.4 600 4 KAPC elev: 15 ft
24304 11:10:26 AM STOCK ELIMINATOR Don Keen 7797 C/S T2 R 11.35 0.026 1.409 4.274 6.714 100.53 8.826 10.622 124.95 W 0.0683 2.865 2.44 2.112 1.796 68 29.94 70 98.3 98.4 600 4 KAPC elev: 15 ft
24306 11:11:18 AM STOCK ELIMINATOR Richie Pauley 7593 C/SA T2 R 11.4 0.085 1.36 4.16 6.556 102.11 8.642 10.42 126.4 W 9.2522 2.8 2.396 2.086 1.778 68 29.94 70 98.3 98.4 600 4 KAPC elev: 15 ft
24305 11:11:18 AM STOCK ELIMINATOR Michael Hakkert 7965 B/SA T2 L 11.25 0.096 1.363 5.217 9.939 48.24 14.858 19.661 44.71 L -9.2522 3.854 4.722 4.919 4.803 68 29.94 70 98.3 98.4 600 4 KAPC elev: 15 ft
24308 11:12:49 AM STOCK ELIMINATOR Scott Burton 5009 B/SA T2 R 11.25 0.048 1.299 3.998 6.329 104.69 8.366 10.104 129.38 W 0.1317 2.699 2.331 2.037 1.738 68 29.94 70 98.3 98.4 600 4 KAPC elev: 15 ft
24307 11:12:49 AM STOCK ELIMINATOR Pete Lanciers 7801 E/SA T2 L 11.7 0.021 2.861 0 0 0 0 0 0 L -0.1317 0 0 0 0 68 29.94 70 98.3 98.4 600 4 KAPC elev: 15 ft
24309 11:17:38 AM STOCK ELIMINATOR Earl Snow Sr 7945 I/SA T2 L 12.3 0.035 1.517 4.611 7.3 90.78 9.655 11.675 110.67 W 0 3.094 2.689 2.355 2.02 68 29.94 70 98.3 98.4 600 4 KAPC elev: 15 ft
24311 11:18:43 AM SUPER STREET Don Riley 711R SST T2 R 10.9 -0.014 1.917 5.229 7.424 115.09 9.235 10.747 149.18 L -0.1435 3.312 2.195 1.811 1.512 68 29.94 70 98.3 98.4 600 4 KAPC elev: 15 ft
24310 11:18:43 AM SUPER STREET   6931 SST T2 L 0 0.022 1.835 4.972 7.16 114.27 9.006 10.568 144.04 W 0.1435 3.137 2.188 1.846 1.562 68 29.94 70 98.3 98.4 600 4 KAPC elev: 15 ft
24312 11:19:49 AM SUPER STREET Harlan Tucker 78 SST T2 R 10.9 0.022 1.482 4.79 7.267 100.43 9.235 10.894 132.44 W 0.8947 3.308 2.477 1.968 1.659 68 29.94 70 98.3 98.4 600 4 KAPC elev: 15 ft
24314 11:20:54 AM SUPER STREET Steve Wellman 7908 SST T2 R 10.9 0.003 1.631 4.796 7.163 105.23 9.168 10.865 133 L -0.0187 3.165 2.367 2.005 1.697 68 29.94 70 98.3 98.4 600 4 KAPC elev: 15 ft
24313 11:20:54 AM SUPER STREET   7750 SST T2 L 0 0.003 1.605 4.838 7.182 106.2 9.17 10.847 134.22 W 0.0187 3.233 2.344 1.988 1.677 68 29.94 70 98.3 98.4 600 4 KAPC elev: 15 ft
24315 11:21:48 AM SUPER STREET Ron Schiel 6311 SST T2 L 10.9 0.151 1.542 5.178 7.605 109.97 9.447 10.948 151.09 L -0.2316 3.636 2.427 1.842 1.501 68 29.94 70 98.3 98.4 600 4 KAPC elev: 15 ft
24316 11:21:48 AM SUPER STREET Dan Bain 7159 SST T2 R 10.9 0.013 1.682 4.837 7.183 104.22 9.159 10.855 130.45 W 0.2316 3.155 2.346 1.976 1.696 68 29.94 70 98.3 98.4 600 4 KAPC elev: 15 ft
24317 11:22:51 AM SUPER STREET Ryan Giacone 72 SST T2 L 10.9 0.014 1.754 5.385 7.647 115.33 9.423 10.881 155.51 L -0.0327 3.631 2.262 1.776 1.458 68 29.94 70 98.3 98.4 600 4 KAPC elev: 15 ft
24318 11:22:51 AM SUPER STREET   714B SST T2 R 0 -0.005 1.675 4.879 7.241 106.13 9.214 10.868 136.47 W 0.0327 3.204 2.362 1.973 1.654 68 29.94 70 98.3 98.4 600 4 KAPC elev: 15 ft
24319 11:23:28 AM SUPER STREET Mark Simonian 706H SST T2 L 10.9 0.027 2.029 5.196 7.413 112.86 9.273 10.835 144.24 W 0.1523 3.167 2.217 1.86 1.562 68 29.94 70 98.3 98.4 600 4 KAPC elev: 15 ft
24320 11:23:28 AM SUPER STREET Kenny Snow 751X SST T2 R 10.9 0.002 1.686 5.016 7.373 106.54 9.346 11.012 134.87 L -0.1523 3.33 2.357 1.973 1.666 68 29.94 70 98.3 98.4 600 4 KAPC elev: 15 ft
24321 11:24:29 AM SUPER STREET Matt Blodgett 7061 SST T2 L 10.9 0.024 1.72 5.033 7.362 107.64 9.314 10.965 133.91 L -0.0336 3.313 2.329 1.952 1.651 68 29.94 70 98.3 98.4 600 4 KAPC elev: 15 ft
24322 11:24:29 AM SUPER STREET Gary Hardee 7042 SST T2 R 10.9 0.049 1.634 4.848 7.227 105 9.227 10.907 134.26 W 0.0336 3.214 2.379 2 1.68 68 29.94 70 98.3 98.4 600 4 KAPC elev: 15 ft
24323 11:25:41 AM SUPER STREET   7085 SST T2 L 0 0.033 1.658 4.756 7.115 105.6 9.105 10.774 135.21 W 0.0045 3.098 2.359 1.99 1.669 68 29.94 70 98.3 98.4 600 4 KAPC elev: 15 ft
24324 11:25:41 AM SUPER STREET   H730 SST T2 R 0 -0.001 1.519 4.382 6.834 99.76 8.977 10.812 122.69 L -0.0045 2.863 2.452 2.143 1.835 68 29.94 70 98.3 98.4 600 4 KAPC elev: 15 ft
24326 11:26:36 AM SUPER STREET Ted Seipel 7829 SST T2 R 10.9 -0.007 1.633 4.529 6.969 99.99 9.104 10.979 118.68 L -0.3334 2.896 2.44 2.135 1.875 68 29.94 70 98.3 98.4 600 4 KAPC elev: 15 ft
24325 11:26:36 AM SUPER STREET   7231 SST T2 L 0 -0.025 1.693 4.958 7.239 111.23 9.111 10.664 145.69 W 0.3334 3.265 2.281 1.872 1.553 68 29.94 70 98.3 98.4 600 4 KAPC elev: 15 ft
24327 11:27:15 AM SUPER STREET Greg Ventura 74 SST T2 L 10.9 0.02 1.632 5.196 7.639 107.84 9.533 11.087 145.75 W 0 3.564 2.443 1.894 1.554 68 29.94 70 98.3 98.4 600 4 KAPC elev: 15 ft
24328 11:28:23 AM SUPER STREET   LIC SST T2 L 0 0.042 1.385 4.049 6.394 103.41 8.466 10.225 128.14 W 0 2.664 2.345 2.072 1.759 68 29.94 70 98.3 98.4 600 4 KAPC elev: 15 ft
24329 11:29:26 AM SUPER COMP Greg Boutte 76 SC T2 L 8.9 0.009 1.465 4.277 6.101 139.2 7.602 8.859 179.21 L -0.3403 2.812 1.824 1.501 1.257 68 29.94 70 98.3 98.4 600 4 KAPC elev: 15 ft
24330 11:29:26 AM SUPER COMP Barry Willoughby 7888 SC T2 R 8.9 0.072 1.174 3.178 4.991 126.41 6.796 8.456 132.46 W 0.3403 2.004 1.813 1.805 1.66 68 29.94 70 98.3 98.4 600 4 KAPC elev: 15 ft
24332 11:30:12 AM SUPER COMP Lynn Welfringer 773L SC T2 R 8.9 0.098 1.254 3.627 5.604 124.56 7.316 8.796 150.48 W 0.0001 2.373 1.977 1.712 1.48 68 29.94 70 98.3 98.4 600 4 KAPC elev: 15 ft
24331 11:30:12 AM SUPER COMP Glenn Kern 7280 SC T2 L 8.9 -0.005 1.196 3.978 5.968 129.28 7.568 8.899 169.55 L -0.0001 2.782 1.99 1.6 1.331 68 29.94 70 98.3 98.4 600 4 KAPC elev: 15 ft
24334 11:31:14 AM SUPER COMP Tanner Hiatt 7319 SC T2 R 8.9 0.037 1.588 4.44 6.226 142.97 7.683 8.905 184.25 L -0.2001 2.852 1.786 1.457 1.222 68 29.94 70 98.3 98.4 600 4 KAPC elev: 15 ft
24333 11:31:14 AM SUPER COMP Jason Rosenbaum 775T SC T2 L 8.9 0.006 1.306 3.752 5.685 128.42 7.337 8.736 160.48 W 0.2001 2.446 1.933 1.652 1.399 68 29.94 70 98.3 98.4 600 4 KAPC elev: 15 ft
24336 11:32:14 AM SUPER COMP Steve Hamilton 3896 SC T2 R 8.9 0.009 1.249 3.942 5.845 133.53 7.405 8.707 173.18 W 0.0601 2.693 1.903 1.56 1.302 68 29.94 70 98.3 98.4 600 4 KAPC elev: 15 ft
24335 11:32:14 AM SUPER COMP Ed Cox 6317 SC T2 L 8.9 0.04 1.342 4.041 5.905 135.54 7.447 8.736 175.25 L -0.0601 2.699 1.864 1.542 1.289 68 29.94 70 98.3 98.4 600 4 KAPC elev: 15 ft
24338 11:33:01 AM SUPER COMP Peyton Januik 7212 SC T2 R 8.9 0.006 1.717 4.487 6.236 144.64 7.684 8.903 184.42 W 0.0148 2.77 1.749 1.448 1.219 68 29.94 70 98.3 98.4 600 4 KAPC elev: 15 ft
24337 11:33:01 AM SUPER COMP Dave Alves 7806 SC T2 L 8.9 0.022 1.629 4.506 6.276 145 7.709 8.901 189.36 L -0.0148 2.877 1.77 1.433 1.192 68 29.94 70 98.3 98.4 600 4 KAPC elev: 15 ft
24340 11:33:32 AM SUPER COMP John Randell 7911 SC T2 R 8.9 0.015 1.293 3.633 5.526 130.08 7.162 8.554 161.92 W 0.3786 2.34 1.893 1.636 1.392 68 29.94 70 98.3 98.4 600 4 KAPC elev: 15 ft
24339 11:33:32 AM SUPER COMP Ed Hauter JR 6092 SC T2 L 8.9 0.04 1.698 4.375 6.162 140.81 7.652 8.907 179.16 L -0.3786 2.677 1.787 1.49 1.255 68 29.94 70 98.3 98.4 600 4 KAPC elev: 15 ft
24341 11:34:37 AM SUPER COMP Mike Hiatt 7725 SC T2 L 8.9 0.007 1.61 4.493 6.297 141.95 7.763 8.989 183.59 L -0.1404 2.883 1.804 1.466 1.226 68 29.94 70 98.3 98.4 600 4 KAPC elev: 15 ft
24342 11:34:37 AM SUPER COMP Allison McKoane 7002 SC T2 R 8.9 -0.007 1.531 4.347 6.153 140.99 7.63 8.863 183.12 W 0.1404 2.816 1.806 1.477 1.233 68 29.94 70 98.3 98.4 600 4 KAPC elev: 15 ft
24343 11:35:59 AM SUPER COMP Ken Mostowich 6173 SC T2 L 8.9 0.038 1.35 4.159 6.05 137.46 7.542 8.766 185.33 L -0.0048 2.809 1.891 1.492 1.224 68 29.94 70 98.3 98.4 600 4 KAPC elev: 15 ft
24344 11:35:59 AM SUPER COMP Justin Rebrovich 7603 SC T2 R 8.9 0.025 1.211 3.798 5.761 127.7 7.403 8.775 164.83 W 0.0048 2.587 1.963 1.642 1.372 68 29.94 70 98.3 98.4 600 4 KAPC elev: 15 ft
24346 11:36:59 AM SUPER COMP Thomas Bayer 71 SC T2 R 8.9 0.295 1.092 3.113 4.839 141.77 6.344 7.633 173.85 W 1.1478 2.021 1.726 1.505 1.289 68 29.94 70 98.3 98.4 600 4 KAPC elev: 15 ft
24345 11:36:59 AM SUPER COMP Greg Krause 569 SC T2 L 8.9 0.578 1.328 3.937 5.756 139.36 7.251 8.497 180.84 L -1.1478 2.609 1.819 1.495 1.246 68 29.94 70 98.3 98.4 600 4 KAPC elev: 15 ft
24347 11:37:52 AM SUPER COMP Steve Williams 735 SC T2 L 8.9 0.044 1.471 4.404 6.214 143.73 7.648 8.832 191.08 L -0.0037 2.933 1.81 1.434 1.184 68 29.94 70 98.3 98.4 600 4 KAPC elev: 15 ft
24348 11:37:52 AM SUPER COMP Beau Hicks 7696 SC T2 R 8.9 0.035 1.433 4.116 5.984 134.54 7.539 8.838 174.03 W 0.0037 2.683 1.868 1.555 1.299 68 29.94 70 98.3 98.4 600 4 KAPC elev: 15 ft
24349 11:38:51 AM SUPER COMP Steve Parsons 701Y SC T2 L 8.9 0.074 1.449 4.09 5.928 137.15 7.457 8.736 176.74 L -0.0126 2.641 1.838 1.529 1.279 68 29.94 70 98.3 98.4 600 4 KAPC elev: 15 ft
24350 11:38:51 AM SUPER COMP Kevin Romfo 7719 SC T2 R 8.9 0.028 1.299 3.971 5.856 133.05 7.437 8.77 168.81 W 0.0126 2.672 1.885 1.581 1.333 68 29.94 70 98.3 98.4 600 4 KAPC elev: 15 ft
24352 11:39:51 AM SUPER COMP Nicholas Saetes C793 SC T2 R 8.9 0.029 1.324 3.991 5.9 131.88 7.489 8.823 168.85 W 0.0317 2.667 1.909 1.589 1.334 68 29.94 70 98.3 98.4 600 4 KAPC elev: 15 ft
24351 11:39:51 AM SUPER COMP Marko Perivolaris 6 SC T2 L 8.9 0.019 1.486 4.341 6.174 141.11 7.642 8.864 184.77 L -0.0317 2.855 1.833 1.468 1.222 68 29.94 70 98.3 98.4 600 4 KAPC elev: 15 ft
24353 11:40:49 AM SUPER COMP Lori Warden 7116 SC T2 L 8.9 -0.009 1.553 4.171 6.029 134.58 7.594 8.913 170.75 L -0.0276 2.618 1.858 1.565 1.319 68 29.94 70 98.3 98.4 600 4 KAPC elev: 15 ft
24354 11:40:49 AM SUPER COMP James Warden 7168 SC T2 R 8.9 -0.012 1.356 4.093 5.985 133.63 7.548 8.889 162.96 W 0.0276 2.737 1.892 1.563 1.341 68 29.94 70 98.3 98.4 600 4 KAPC elev: 15 ft
24355 11:43:36 AM SUPER COMP Paige Lundeen 7600 SC T2 L 8.9 0.01 1.554 4.311 6.131 139.18 7.638 8.908 177.25 L -0.0606 2.757 1.82 1.507 1.27 68 29.94 70 98.3 98.4 600 4 KAPC elev: 15 ft
24356 11:43:36 AM SUPER COMP Madison Whitten 7296 SC T2 R 8.9 0.025 1.44 4.186 6.034 137.11 7.558 8.833 177.23 W 0.0606 2.746 1.848 1.524 1.275 68 29.94 70 98.3 98.4 600 4 KAPC elev: 15 ft
24357 11:45:06 AM SUPER STOCK Randy Loge 78 SS/KA T2 L 11.25 0.007 1.364 4.2 6.606 101.6 8.707 10.5 125.27 W 0.5839 2.836 2.406 2.101 1.793 68 29.94 70 98.3 98.4 600 4 KAPC elev: 15 ft
24358 11:45:06 AM SUPER STOCK Douglas Colley 7922 SS/VX T2 R 11.6 0.021 1.489 4.471 6.988 95.37 9.192 11.069 120.08 L -0.5839 2.982 2.517 2.204 1.877 68 29.94 70 98.3 98.4 600 4 KAPC elev: 15 ft
24360 11:45:41 AM SUPER STOCK Tod Haste 611T GT/MA T2 R 11.2 0.069 1.431 4.284 6.738 99.66 8.877 10.702 122.9 L -0.5575 2.853 2.454 2.139 1.825 68 29.94 70 98.3 98.4 600 4 KAPC elev: 15 ft
24359 11:45:41 AM SUPER STOCK Mike Graham 7702 GT/KA T2 L 10.9 -0.001 1.321 4.059 6.38 105.42 8.406 10.215 118.49 W 0.5575 2.738 2.321 2.026 1.809 68 29.94 70 98.3 98.4 600 4 KAPC elev: 15 ft
24361 11:46:33 AM SUPER STOCK Rich Pinoski 734 GT/JA T2 L 10.8 0.046 1.461 4.021 6.334 105.62 8.356 10.085 129.63 L -1.0852 2.56 2.313 2.022 1.729 68 29.94 70 98.3 98.4 600 4 KAPC elev: 15 ft
24362 11:46:33 AM SUPER STOCK Ed Niquette 7526 SS/AM T2 R 9 -0.241 1.194 3.784 5.843 119.1 7.622 9.287 128.66 W 1.0852 2.59 2.059 1.779 1.665 68 29.94 70 98.3 98.4 600 4 KAPC elev: 15 ft
24363 11:48:14 AM SPORTSMAN MOTORCYCLE Eric Jaquith 72 SMC T2 L 0 0.07 1.518 4.027 6.164 114.26 8.044 9.671 134.4 W 0.0391 2.509 2.137 1.88 1.627 68 29.94 70 98.3 98.4 600 4 KAPC elev: 15 ft
24364 11:48:14 AM SPORTSMAN MOTORCYCLE   754 SMC T2 R 0 0.011 1.441 3.982 6.168 111.33 8.102 9.769 132.57 L -0.0391 2.541 2.186 1.934 1.667 68 29.94 70 98.3 98.4 600 4 KAPC elev: 15 ft
24365 11:48:57 AM SPORTSMAN MOTORCYCLE Ron Alves 73 SMC T2 L 0 0.062 1.26 3.344 5.119 137.76 6.7 8.045 162.43 W 0.2697 2.084 1.775 1.581 1.345 68 29.94 70 98.3 98.4 600 4 KAPC elev: 15 ft
24366 11:48:57 AM SPORTSMAN MOTORCYCLE   61 SMC T2 R 0 0.036 1.283 3.424 5.274 131.52 6.919 8.34 157.58 L -0.2697 2.141 1.85 1.645 1.421 68 29.94 70 98.3 98.4 600 4 KAPC elev: 15 ft
24368 11:49:53 AM SPORTSMAN MOTORCYCLE Jordan Miclette 7010 SMC T2 R 0 0.216 1.273 3.574 5.538 124.27 7.266 8.757 150.03 W 7.3867 2.301 1.964 1.728 1.491 68 29.94 70 98.3 98.4 600 4 KAPC elev: 15 ft
24367 11:49:53 AM SPORTSMAN MOTORCYCLE   187 SMC T2 L 0 0.423 1.801 4.673 7.831 65.35 11.804 15.936 57.22 L -7.3867 2.872 3.158 3.973 4.132 68 29.94 70 98.3 98.4 600 4 KAPC elev: 15 ft
24370 11:51:17 AM SPORTSMAN MOTORCYCLE Anthony Vanetti 330 SMC T2 R 0 0.052 1.193 3.303 5.094 135.84 6.67 8.028 164.47 W 2.7942 2.11 1.791 1.576 1.358 68 29.94 70 98.3 98.4 600 4 KAPC elev: 15 ft
24369 11:51:17 AM SPORTSMAN MOTORCYCLE   G779 SMC T2 L 0 0.286 1.853 4.715 6.978 109.33 8.934 10.588 134.23 L -2.7942 2.862 2.263 1.956 1.654 68 29.94 70 98.3 98.4 600 4 KAPC elev: 15 ft
24371 11:52:53 AM TOP DRAGSTER Art Hoover 7102 TD T2 L 0 -0.001 0.99 2.699 4.133 171.31 5.383 6.456 208.33 L -0.4027 1.709 1.434 1.25 1.073 68 29.94 70 98.3 98.4 600 4 KAPC elev: 15 ft
24372 11:52:53 AM TOP DRAGSTER   733A TD T2 R 0 0.028 0.988 2.585 3.907 186.2 5.051 6.025 230.21 W 0.4027 1.597 1.322 1.144 0.974 68 29.94 70 98.3 98.4 600 4 KAPC elev: 15 ft
24373 11:54:05 AM TOP DRAGSTER Mike MacBrair 7730 TD T2 L 0 0.063 1.029 2.75 4.201 169.19 5.465 6.546 207.46 L -0.0348 1.721 1.451 1.264 1.081 68 29.94 70 98.3 98.4 600 4 KAPC elev: 15 ft
24374 11:54:05 AM TOP DRAGSTER Michaelyn Roelle 7786 TD T2 R 0 0.024 0.99 2.729 4.195 167.16 5.47 6.551 208.07 W 0.0348 1.739 1.466 1.275 1.081 68 29.94 70 98.3 98.4 600 4 KAPC elev: 15 ft
24375 11:55:19 AM TOP DRAGSTER Melissa Fedrick 7733 TD T2 R 0 -0.002 1.023 2.75 4.204 168.87 5.469 6.549 207.56 W 6.4843 1.727 1.454 1.265 1.08 68 29.94 70 98.3 98.4 600 4 KAPC elev: 15 ft
24377 11:57:17 AM TOP DRAGSTER Mark Yeager 7638 TD T2 R 0 0.006 0.997 2.775 4.271 164.07 5.573 6.684 202.03 W 6.5901 1.778 1.496 1.302 1.111 68 29.94 70 98.3 98.4 600 4 KAPC elev: 15 ft
24376 11:57:17 AM TOP DRAGSTER   752T TD T2 L 0 0.022 1.117 4.165 7.309 74.05 10.255 13.258 68.83 L -6.5901 3.048 3.144 2.946 3.003 68 29.94 70 98.3 98.4 600 4 KAPC elev: 15 ft
24378 11:58:34 AM TOP DRAGSTER John Freer 711 TD T2 L 0 0.332 1.095 3.006 4.631 151.26 6.039 7.241 186.1 L -0.6283 1.911 1.625 1.408 1.202 70 29.94 68 97.9 98 728 4 KAPC elev: 15 ft
24379 11:58:34 AM TOP DRAGSTER Jeff Havens 6031 TD T2 R 0 0 1.039 2.926 4.469 159.82 5.799 6.945 194.8 W 0.6283 1.887 1.543 1.33 1.146 70 29.94 68 97.9 98 728 4 KAPC elev: 15 ft
24380 11:59:42 AM TOP DRAGSTER Jon Bradford 7848 TD T2 L 0 0.04 1.108 2.771 4.257 147.15 5.942 7.714 117.74 L -1.0965 1.663 1.486 1.685 1.772 70 29.94 68 97.9 98 728 4 KAPC elev: 15 ft
24381 11:59:42 AM TOP DRAGSTER Andy Spiegel 7160 TD T2 R 0 0.01 0.992 2.755 4.236 165.11 5.533 6.648 200.62 W 1.0965 1.763 1.481 1.297 1.115 70 29.94 68 97.9 98 728 4 KAPC elev: 15 ft
24383 12:00:54 PM TOP DRAGSTER Bobby Ray McMahan 7029 TD T2 R 0 0.007 0.995 2.622 3.96 184.19 5.117 6.105 226.81 W 1.6786 1.627 1.338 1.157 0.988 70 29.94 68 97.9 98 728 4 KAPC elev: 15 ft
24382 12:00:54 PM TOP DRAGSTER   7706 TD T2 L 0 0.23 1.131 3.128 4.832 144.16 6.305 7.56 178.5 L -1.6786 1.997 1.704 1.473 1.255 70 29.94 68 97.9 98 728 4 KAPC elev: 15 ft
24384 12:01:49 PM TOP DRAGSTER Peyton Januik 7212 TD T2 L 0 0.022 0.982 2.625 3.943 187.99 5.063 6.005 238.76 W 0.5936 1.643 1.318 1.12 0.942 70 29.94 68 97.9 98 728 4 KAPC elev: 15 ft
24385 12:01:49 PM TOP DRAGSTER John Harry Bond 782 TD T2 R 0 0.099 1.012 2.634 3.974 182.92 5.22 6.521 160.35 L -0.5936 1.622 1.34 1.246 1.301 70 29.94 68 97.9 98 728 4 KAPC elev: 15 ft
24386 12:03:17 PM TOP DRAGSTER Ed Hauter JR 6092 TD T2 R 0 0.6 1.1 3.082 4.768 146.23 6.223 7.461 181.35 W 0 1.982 1.686 1.455 1.238 70 29.94 68 97.9 98 728 4 KAPC elev: 15 ft
24387 12:05:03 PM TOP DRAGSTER James Warden 7168 TD T2 L 0 -0.003 1.106 3.1 4.788 145.48 6.253 7.503 179.21 L -1.0188 1.994 1.688 1.465 1.25 70 29.94 68 97.9 98 728 4 KAPC elev: 15 ft
24388 12:05:03 PM TOP DRAGSTER Jack Sadler 7194 TD T2 R 0 0.023 1.022 2.74 4.179 168.16 5.408 6.459 213.5 W 1.0188 1.718 1.439 1.229 1.051 70 29.94 68 97.9 98 728 4 KAPC elev: 15 ft
24390 12:10:29 PM COMPETITION ELIMINATOR Wayne Willemsen 741W B/ND T2 R 7.56   1.287 3.433 5.231 134.26 6.793 8.138 168.22 W 0 2.146 1.798 1.562 1.345 70 29.94 68 97.9 98 728 4 KAPC elev: 15 ft
24389 12:10:29 PM COMPETITION ELIMINATOR Brad Brewer 7011 B/A T2 L 7.66 0.045 1.06 2.99 4.895 116.38 6.932 8.916 108.34 L 0 1.93 1.905 2.037 1.984 70 29.94 68 97.9 98 728 4 KAPC elev: 15 ft
24391 12:12:05 PM COMPETITION ELIMINATOR Brian Moscini 768M G/AA T2 L 8.87 0.105 1.189 3.466 5.395 127.09 7.066 8.49 157.34 W 0 2.277 1.929 1.671 1.424 70 29.94 68 97.9 98 728 4 KAPC elev: 15 ft
24393 12:12:59 PM SUPER GAS Larry Scarth 7267 SG T2 R 9.9 0.045 1.461 4.675 6.83 121.8 8.508 9.89 163.69 W 0.5088 3.214 2.155 1.678 1.382 70 29.94 68 97.9 98 728 4 KAPC elev: 15 ft
24392 12:12:59 PM SUPER GAS Janice Hogan 7186 SG T2 L 9.9 0.163 1.355 4.208 6.51 107.97 8.492 10.28 118.99 L -0.5088 2.853 2.302 1.982 1.788 70 29.94 68 97.9 98 728 4 KAPC elev: 15 ft
24394 12:13:44 PM SUPER GAS Pete Zak 701P SG T2 L 9.9 0.008 1.43 4.655 6.803 121.27 8.49 9.873 163.65 W 0.1625 3.225 2.148 1.687 1.383 70 29.94 68 97.9 98 728 4 KAPC elev: 15 ft
24395 12:13:44 PM SUPER GAS   7264 SG T2 R 0 0.053 1.733 4.768 6.854 119.32 8.562 9.99 158.26 L -0.1625 3.035 2.086 1.708 1.428 70 29.94 68 97.9 98 728 4 KAPC elev: 15 ft
24397 12:14:28 PM SUPER GAS Mark Lewis 712L SG T2 R 9.9 0.016 1.597 4.92 6.995 126.27 8.618 9.951 170.06 L -0.1613 3.323 2.075 1.623 1.333 70 29.94 68 97.9 98 728 4 KAPC elev: 15 ft
24396 12:14:28 PM SUPER GAS John Parrino 7592 SG T2 L 9.9 -0.094 1.445 4.402 6.552 116.28 8.365 9.9 146.02 W 0.1613 2.957 2.15 1.813 1.535 70 29.94 68 97.9 98 728 4 KAPC elev: 15 ft
24398 12:15:19 PM SUPER GAS Roger Kato 7117 SG T2 L 9.9 0.01 1.699 5.001 6.969 130.85 8.538 9.823 176.28 W 0.0762 3.302 1.968 1.569 1.285 70 29.94 68 97.9 98 728 4 KAPC elev: 15 ft
24399 12:15:19 PM SUPER GAS Rick Beckstrom 731 SG T2 R 9.9 0.02 1.411 4.662 6.904 118.5 8.55 9.889 169.87 L -0.0762 3.251 2.242 1.646 1.339 70 29.94 68 97.9 98 728 4 KAPC elev: 15 ft
24400 12:15:52 PM SUPER GAS Randy Cloud 7163 SG T2 L 9.9 0.01 1.425 4.272 6.463 113.7 8.318 9.884 143.57 W 0.0827 2.847 2.191 1.855 1.566 70 29.94 68 97.9 98 728 4 KAPC elev: 15 ft
24401 12:15:52 PM SUPER GAS   7034 SG T2 R 0 0.014 1.503 4.669 6.835 119.74 8.551 9.962 160.58 L -0.0827 3.166 2.166 1.716 1.411 70 29.94 68 97.9 98 728 4 KAPC elev: 15 ft
24402 12:16:19 PM SUPER GAS Richard Stone 7558 SG T2 R 9.9 0.022 0 0 0 0 0 0 0   0 0 0 0 0 70 29.94 68 97.9 98 728 4 KAPC elev: 15 ft
24403 12:16:34 PM SUPER GAS     SG T2 L 9.9 0 1.449 4.077 6.292 110.91 8.21 9.842 137.5 W 0.0134 2.628 2.215 1.918 1.632 70 29.94 68 97.9 98 728 4 KAPC elev: 15 ft
24404 12:16:34 PM SUPER GAS     SG T2 R 9.9 0 1.513 4.505 6.639 118.54 8.401 9.882 152.28 L -0.0134 2.992 2.134 1.762 1.481 70 29.94 68 97.9 98 728 4 KAPC elev: 15 ft
24406 12:17:10 PM SUPER GAS Ted Seipel 7829 SG T2 R 9.9 0.015 1.403 4.082 6.276 111.72 8.192 9.869 132.62 W 0.0611 2.679 2.194 1.916 1.677 70 29.94 68 97.9 98 728 4 KAPC elev: 15 ft
24405 12:17:10 PM SUPER GAS Joe Greco 7138 SG T2 L 9.9 0.041 1.471 4.593 6.774 119.14 8.492 9.904 160.65 L -0.0611 3.122 2.181 1.718 1.412 70 29.94 68 97.9 98 728 4 KAPC elev: 15 ft
24407 12:17:59 PM SUPER GAS Ryan Herem 79 SG T2 L 9.9 0.018 1.719 5.02 7.05 128.98 8.635 9.927 175.75 L -0.0798 3.301 2.03 1.585 1.292 70 29.94 68 97.9 98 728 4 KAPC elev: 15 ft
24408 12:17:59 PM SUPER GAS Gary Mignacca 743 SG T2 R 9.9 -0.003 1.475 4.323 6.491 114.76 8.323 9.869 145.7 W 0.0798 2.848 2.168 1.832 1.546 70 29.94 68 97.9 98 728 4 KAPC elev: 15 ft
24409 12:18:38 PM SUPER GAS Doug Romfo 7216 SG T2 L 9.9 0.022 1.815 4.919 6.915 127.34 8.549 9.913 165.82 L -0.0755 3.104 1.996 1.634 1.364 70 29.94 68 97.9 98 728 4 KAPC elev: 15 ft
24410 12:18:38 PM SUPER GAS Diana Anderson 6683 SG T2 R 9.9 0.039 1.503 4.658 6.714 123.47 8.404 9.821 158.93 W 0.0755 3.155 2.056 1.69 1.417 70 29.94 68 97.9 98 728 4 KAPC elev: 15 ft
24411 12:19:18 PM SUPER GAS Justin Strom 7576 SG T2 L 9.9 0.034 1.524 4.779 6.869 122.91 8.545 9.929 163.26 L -0.1412 3.255 2.09 1.676 1.384 70 29.94 68 97.9 98 728 4 KAPC elev: 15 ft
24412 12:19:18 PM SUPER GAS Don Anderson 6832 SG T2 R 9.9 0.001 1.548 4.756 6.791 125.24 8.439 9.821 163.49 W 0.1412 3.208 2.035 1.648 1.382 70 29.94 68 97.9 98 728 4 KAPC elev: 15 ft
24413 12:19:59 PM SUPER GAS Steve Williams 735 SG T2 L 9.9 0.004 1.503 4.888 7.024 125.74 8.623 9.916 175.62 W 0.0728 3.385 2.136 1.599 1.293 70 29.94 68 97.9 98 728 4 KAPC elev: 15 ft
24414 12:19:59 PM SUPER GAS Mike Collins 7779 SG T2 R 9.9 -0.007 1.513 4.261 6.45 112.11 8.358 9.999 136.22 L -0.0728 2.748 2.189 1.908 1.641 70 29.94 68 97.9 98 728 4 KAPC elev: 15 ft
24415 12:20:55 PM SUPER GAS Marko Perivolaris 7585 SG T2 L 9.9 0.009 1.675 4.879 6.992 125.83 8.601 9.912 172.83 W 0.0037 3.204 2.113 1.609 1.311 70 29.94 68 97.9 98 728 4 KAPC elev: 15 ft
24416 12:20:55 PM SUPER GAS   7171 SG T2 R 0 0 1.627 4.939 6.988 128.02 8.594 9.924 170.23 L -0.0037 3.312 2.049 1.606 1.33 70 29.94 68 97.9 98 728 4 KAPC elev: 15 ft
24417 12:21:56 PM SUPER GAS Rob Willis 683 SG T2 L 9.9 0 1.435 4.732 6.87 123.66 8.519 9.865 168.35 W 0.7537 3.297 2.138 1.649 1.346 70 29.94 68 97.9 98 728 4 KAPC elev: 15 ft
24418 12:21:56 PM SUPER GAS   7000 SG T2 R 0 0.131 1.768 4.979 7.159 115.43 8.971 10.487 148.85 L -0.7537 3.211 2.18 1.812 1.516 70 29.94 68 97.9 98 728 4 KAPC elev: 15 ft
24419 12:22:38 PM SUPER GAS Larry Bradshaw 7332 SG T2 L 9.9 0.031 1.626 4.881 7.005 122.2 8.685 10.068 163.51 L -0.1865 3.255 2.124 1.68 1.383 70 29.94 68 97.9 98 728 4 KAPC elev: 15 ft
24420 12:22:38 PM SUPER GAS   6193 SG T2 R 0 -0.004 1.672 4.881 6.952 125.19 8.581 9.917 170 W 0.1865 3.209 2.071 1.629 1.336 70 29.94 68 97.9 98 728 4 KAPC elev: 15 ft
24421 12:23:34 PM SUPER GAS   7883 SG T2 R 0 0.105 1.33 4.417 6.591 114.89 8.379 9.887 149.18 W 0 3.087 2.174 1.788 1.508 70 29.94 68 97.9 98 728 4 KAPC elev: 15 ft
24422 12:27:16 PM TOP SPORTSMAN Sam Blaylock 7070 TS T2 R 0 0.178 1.012 3.01 4.673 149.51 6.094 7.262 194.16 W 0 1.998 1.663 1.421 1.168 70 29.94 68 97.9 98 728 4 KAPC elev: 15 ft
24424 12:43:46 PM TOP SPORTSMAN Paul Mitsos 7534 TS T2 R 0 -0.015 1.026 2.967 4.588 152.19 5.979 7.154 191.51 W 0.2595 1.941 1.621 1.391 1.175 70 29.94 68 97.9 98 728 4 KAPC elev: 15 ft
24423 12:43:46 PM TOP SPORTSMAN Chris Esrick 7398 TS T2 L 0 0.037 1.089 3.058 4.711 147.47 6.139 7.361 183.74 L -0.2595 1.969 1.653 1.428 1.222 70 29.94 68 97.9 98 728 4 KAPC elev: 15 ft
24425 12:45:59 PM TOP SPORTSMAN Mike Williams 6646 TS T2 L 0 0.035 1.009 2.86 4.4 160.84 5.711 6.814 204.54 L -0.0117 1.851 1.54 1.311 1.103 70 29.94 68 97.9 98 728 4 KAPC elev: 15 ft
24426 12:45:59 PM TOP SPORTSMAN Chip Rumis 7449 TS T2 R 0 0.053 1.004 2.836 4.454 159.63 5.737 6.785 216.31 W 0.0117 1.832 1.618 1.283 1.048 70 29.94 68 97.9 98 728 4 KAPC elev: 15 ft
24428 12:47:25 PM TOP SPORTSMAN Kelly Harper 77 TS T2 R 0 0.02 1.022 2.918 4.504 155.38 5.871 7.034 193.82 L -0.0443 1.896 1.586 1.367 1.163 70 29.94 68 97.9 98 728 4 KAPC elev: 15 ft
24427 12:47:25 PM TOP SPORTSMAN Doug Crumlich 78 TS T2 L 0 0.093 1.026 2.897 4.46 158.43 5.793 6.917 200.2 W 0.0443 1.871 1.563 1.333 1.124 70 29.94 68 97.9 98 728 4 KAPC elev: 15 ft
24429 12:48:47 PM TOP SPORTSMAN Stephanie Warn-Skaggs 7315 TS T2 L 0 0.018 1.044 2.999 4.588 154.07 5.958 7.115 194.21 L -0.1756 1.955 1.589 1.37 1.157 70 29.94 68 97.9 98 728 4 KAPC elev: 15 ft
24430 12:48:47 PM TOP SPORTSMAN   7894 TS T2 R 0 -0.004 1.024 2.913 4.481 157.45 5.824 6.962 195.22 W 0.1756 1.889 1.568 1.343 1.138 70 29.94 68 97.9 98 728 4 KAPC elev: 15 ft
24431 12:50:12 PM TOP SPORTSMAN Jeff Connelly 7151 TS T2 L 0 0.092 1.085 2.989 4.543 158.09 5.817 6.885 211.2 W 0 1.904 1.554 1.274 1.068 70 29.94 68 97.9 98 728 4 KAPC elev: 15 ft
24432 12:52:42 PM STOCK ELIMINATOR Steve Valkanoff 7573 R/SA T3 L 14.05 0.017 1.804 5.185 8.053 85.51 10.548 12.679 105.18 L -1.0725 3.381 2.868 2.495 2.131 70 29.94 68 97.9 98 728 4 KAPC elev: 15 ft
24433 12:52:42 PM STOCK ELIMINATOR   711C ? T3 R 0 0.12 1.73 5.757 8.091 110.05 9.964 11.504 147.01 W 1.0725 4.027 2.334 1.873 1.54 70 29.94 68 97.9 98 728 4 KAPC elev: 15 ft
24435 12:53:32 PM STOCK ELIMINATOR Norm Webber 6635 C/SA T3 R 11.4 -0.052 1.39 4.186 6.575 102.45 8.657 10.433 126.42 W 0.8784 2.796 2.389 2.082 1.776 70 29.94 68 97.9 98 728 4 KAPC elev: 15 ft
24434 12:53:32 PM STOCK ELIMINATOR Cal Method 611 H/SA T3 L 12.15 0.04 1.432 4.413 7.004 94.28 9.274 11.219 115.18 L -0.8784 2.981 2.591 2.27 1.945 70 29.94 68 97.9 98 728 4 KAPC elev: 15 ft
24437 12:54:17 PM STOCK ELIMINATOR Jody Lang 5 N/SA T3 R 13 0.014 1.61 4.845 7.648 87.19 10.092 12.174 107.75 L -2.1072 3.235 2.803 2.444 2.082 70 29.94 68 97.9 98 728 4 KAPC elev: 15 ft
24436 12:54:17 PM STOCK ELIMINATOR Dwayne Scheitlin 5526 A/SA T3 L 11 0.05 1.336 4.008 6.313 106.19 8.319 10.031 130.99 W 2.1072 2.672 2.305 2.006 1.712 70 29.94 68 97.9 98 728 4 KAPC elev: 15 ft
24439 12:54:57 PM STOCK ELIMINATOR Jeff Jerome 7307 A/SA T3 R 11 0.045 1.374 4.133 6.479 104.51 8.517 10.253 129.26 W 0.6157 2.759 2.346 2.038 1.736 70 29.94 68 97.9 98 728 4 KAPC elev: 15 ft
24438 12:54:57 PM STOCK ELIMINATOR Debbie Hewes 7961 D/SA T3 L 11.55 0.074 1.452 4.355 6.838 98.65 8.998 10.839 121.95 L -0.6157 2.903 2.483 2.16 1.841 70 29.94 68 97.9 98 728 4 KAPC elev: 15 ft
24440 12:55:48 PM STOCK ELIMINATOR Larry Gilley 4 E/SA T3 L 11.7 0.045 1.412 4.279 6.757 98.59 8.923 10.768 121.77 W 0.3986 2.867 2.478 2.166 1.845 70 29.94 68 97.9 98 728 4 KAPC elev: 15 ft
24441 12:55:48 PM STOCK ELIMINATOR John Gray 7857 F/SA T3 R 11.85 0.024 1.464 4.443 7.016 94.93 9.265 11.187 116.68 L -0.3986 2.979 2.573 2.249 1.922 70 29.94 68 97.9 98 728 4 KAPC elev: 15 ft
24442 12:56:39 PM STOCK ELIMINATOR Scott Burton 5009 B/SA T3 L 11.25 0.005 1.298 4 6.33 104.8 8.366 10.104 129.1 W 1.0235 2.702 2.33 2.036 1.738 70 29.94 68 97.9 98 728 4 KAPC elev: 15 ft
24443 12:56:39 PM STOCK ELIMINATOR Pete Lanciers 7801 E/SA T3 R 11.7 0.027 1.451 4.449 7.001 95.92 9.219 11.105 119.18 L -1.0235 2.998 2.552 2.218 1.886 70 29.94 68 97.9 98 728 4 KAPC elev: 15 ft
24444 12:57:22 PM STOCK ELIMINATOR Mike Cotten 4688 G/SA T3 L 12 -0.002 1.493 4.445 6.998 95.61 9.223 11.11 118.99 L -0.7952 2.952 2.553 2.225 1.887 70 29.94 68 97.9 98 728 4 KAPC elev: 15 ft
24445 12:57:22 PM STOCK ELIMINATOR Michael Hakkert 7965 B/SA T3 R 11.25 0.052 1.351 4.109 6.468 103.91 8.517 10.261 128.77 W 0.7952 2.758 2.359 2.049 1.744 70 29.94 68 97.9 98 728 4 KAPC elev: 15 ft
24446 12:58:07 PM STOCK ELIMINATOR Tom Ferruggia 7680 FS/C T3 L 10.3 0.061 1.27 3.763 5.881 115.53 7.725 9.295 142.97 W 4.1979 2.493 2.118 1.844 1.57 74 29.93 62 97.2 97.2 992 5 KAPC elev: 15 ft
24447 12:58:07 PM STOCK ELIMINATOR B J Graham 7702 U/SA T3 R 14.85 -0.196 1.756 5.463 8.637 77.1 11.397 13.749 95.41 L -4.1979 3.707 3.174 2.76 2.352 74 29.93 62 97.2 97.2 992 5 KAPC elev: 15 ft
24448 12:58:59 PM STOCK ELIMINATOR Nanette Stein 7022 O/SA T3 L 13.15 0.027 1.64 5.004 7.911 83.96 10.45 12.61 104.06 L -2.8488 3.364 2.907 2.539 2.16 74 29.93 62 97.2 97.2 992 5 KAPC elev: 15 ft
24449 12:58:59 PM STOCK ELIMINATOR Brian McClanahan 795 AA/SA T3 R 10.7 0.016 1.309 3.929 6.171 109.27 8.118 9.773 135.81 W 2.8488 2.62 2.242 1.947 1.655 74 29.93 62 97.2 97.2 992 5 KAPC elev: 15 ft
24451 12:59:38 PM STOCK ELIMINATOR Phil Mandella Jr 732 G/SA T3 R 12 0.047 1.487 4.481 7.069 94.34 9.326 11.369 103.95 L -0.7695 2.994 2.588 2.257 2.043 74 29.93 62 97.2 97.2 992 5 KAPC elev: 15 ft
24450 12:59:38 PM STOCK ELIMINATOR Don Keen 7797 C/S T3 L 11.35 0.077 1.445 4.276 6.698 101.36 8.792 10.57 126.12 W 0.7695 2.831 2.422 2.094 1.778 74 29.93 62 97.2 97.2 992 5 KAPC elev: 15 ft
24452 1:00:25 PM SUPER STREET Ron Schiel 6311 SST T2 L 10.9 0.074 1.494 5.098 7.525 110.02 9.367 10.868 151.09 L -0.1613 3.604 2.427 1.842 1.501 74 29.93 62 97.2 97.2 992 5 KAPC elev: 15 ft
24453 1:00:25 PM SUPER STREET   H730 SST T2 R 0 0.027 1.488 4.344 6.79 100.07 8.925 10.754 122.72 W 0.1613 2.856 2.446 2.135 1.829 74 29.93 62 97.2 97.2 992 5 KAPC elev: 15 ft
24455 1:01:38 PM SUPER STREET Matt Hartzell 7257 SST T2 R 10.9 0.046 1.676 4.912 7.608 80.7 10.684 13.938 64.06 L -3.0595 3.236 2.696 3.076 3.254 74 29.93 62 97.2 97.2 992 5 KAPC elev: 15 ft
24454 1:01:38 PM SUPER STREET Gary Hardee 7042 SST T2 L 10.9 0.055 1.602 4.808 7.189 105.06 9.188 10.87 133.99 W 3.0595 3.206 2.381 1.999 1.682 74 29.93 62 97.2 97.2 992 5 KAPC elev: 15 ft
24456 1:02:26 PM SUPER STREET Don Riley 711R SST T2 L 10.9 0.022 1.897 5.26 7.482 114.17 9.304 10.823 148.62 W 0.0763 3.363 2.222 1.822 1.519 74 29.93 62 97.2 97.2 992 5 KAPC elev: 15 ft
24457 1:02:26 PM SUPER STREET   7750 SST T2 R 0 -0.004 1.618 4.889 7.248 105.59 9.244 10.925 134.58 L -0.0763 3.271 2.359 1.996 1.681 74 29.93 62 97.2 97.2 992 5 KAPC elev: 15 ft
24458 1:03:15 PM SUPER STREET   7231 SST T2 L 0 -0.016 1.753 5.194 7.536 109.03 9.433 10.997 145.03 L -0.0431 3.441 2.342 1.897 1.564 74 29.93 62 97.2 97.2 992 5 KAPC elev: 15 ft
24459 1:03:15 PM SUPER STREET   7085 SST T2 R 0 0.001 1.678 4.861 7.249 104.4 9.256 10.937 134.16 W 0.0431 3.183 2.388 2.007 1.681 74 29.93 62 97.2 97.2 992 5 KAPC elev: 15 ft
24461 1:04:07 PM SUPER STREET Kenny Snow 751X SST T2 R 10.9 -0.002 1.722 4.971 7.282 107.87 9.237 10.895 135.35 W 0.0229 3.249 2.311 1.955 1.658 74 29.93 62 97.2 97.2 992 5 KAPC elev: 15 ft
24460 1:04:07 PM SUPER STREET Greg Ventura 74 SST T2 L 10.9 -0.01 1.64 5.164 7.519 110.26 9.385 10.925 147.39 L -0.0229 3.524 2.355 1.866 1.54 74 29.93 62 97.2 97.2 992 5 KAPC elev: 15 ft
24463 1:04:47 PM SUPER STREET Ted Seipel 7829 SST T2 R 10.9 0.05 1.61 4.527 6.973 99.96 9.106 10.978 118.67 L -0.7105 2.917 2.446 2.133 1.872 74 29.93 62 97.2 97.2 992 5 KAPC elev: 15 ft
24462 1:04:47 PM SUPER STREET   739E SST T2 L 0 0.027 1.464 4.202 6.536 104.94 8.563 10.291 129.69 W 0.7105 2.738 2.334 2.027 1.728 74 29.93 62 97.2 97.2 992 5 KAPC elev: 15 ft
24465 1:05:43 PM SUPER STREET David Adams 739 SST T2 R 10.9 -0.198 1.651 5.14 7.511 109.95 9.378 10.921 146.72 W 0.2975 3.489 2.371 1.867 1.543 74 29.93 62 97.2 97.2 992 5 KAPC elev: 15 ft
24464 1:05:43 PM SUPER STREET   714B SST T2 L 0 0.026 1.681 4.943 7.343 105.05 9.333 10.994 135.92 L -0.2975 3.262 2.4 1.99 1.661 74 29.93 62 97.2 97.2 992 5 KAPC elev: 15 ft
24467 1:06:17 PM SUPER STREET Matt Blodgett 7061 SST T2 R 10.9 0.012 1.711 4.951 7.25 106.68 9.17 10.803 135.82 W 0.0794 3.24 2.299 1.92 1.633 74 29.93 62 97.2 97.2 992 5 KAPC elev: 15 ft
24466 1:06:17 PM SUPER STREET Mark Simonian 706H SST T2 L 10.9 0.035 2.034 5.207 7.43 112.65 9.295 10.859 144.13 L -0.0794 3.173 2.223 1.865 1.564 74 29.93 62 97.2 97.2 992 5 KAPC elev: 15 ft
24468 1:07:27 PM SUPER STREET Dan Bain 7159 SST T2 L 10.9 -0.007 1.696 4.909 7.269 105.72 9.268 10.966 132.05 W 0 3.213 2.36 1.999 1.698 74 29.93 62 97.2 97.2 992 5 KAPC elev: 15 ft
24469 1:43:39 PM OUTLAW SMALL TIRE   2 OUTLAW T1 L 0 0.987 0 6.177 0 0 0 0 0   0 6.177 0 0 0 74 29.93 62 97.2 97.2 992 5 KAPC elev: 15 ft
24470 1:48:05 PM PRO MOD Rickie Smith 1 PM T0 L 0 0.059 1.056 2.778 4.216 153.2 5.775 7.385 129.18 L -1.0618 1.722 1.438 1.559 1.61 74 29.93 62 97.2 97.2 992 5 KAPC elev: 15 ft
24471 1:48:05 PM PRO MOD Bret Williamson 7238 PM T0 R 0 0.167 0.99 2.742 4.122 182.3 5.267 6.216 238.93 W 1.0618 1.752 1.38 1.145 0.949 74 29.93 62 97.2 97.2 992 5 KAPC elev: 15 ft
24472 1:51:29 PM PRO MOD Kirk Kuhns 750 PM Q1 L 0 0.04 1.028 2.681 3.912 203.71 4.945 5.814 259.96 W 0.0481 1.653 1.231 1.033 0.869 74 29.93 62 97.2 97.2 992 5 KAPC elev: 15 ft
24473 1:51:29 PM PRO MOD   7965 PM Q1 R 0 -0.002 1.022 2.705 3.952 201.01 4.998 5.904 243.85 L -0.0481 1.683 1.247 1.046 0.906 74 29.93 62 97.2 97.2 992 5 KAPC elev: 15 ft
24474 1:55:52 PM PRO MOD Randy Walker 756 PM Q1 L 0 0.089 1.044 2.67 3.948 194.32 5.042 5.971 242.5 W 6.0605 1.626 1.278 1.094 0.929 74 29.93 62 97.2 97.2 992 5 KAPC elev: 15 ft
24476 1:59:31 PM PRO MOD Troy Coughlin 2 PM Q1 R 0 0.057 1.042 2.749 4.219 168.91 5.415 6.388 225.26 W 1.1902 1.707 1.47 1.196 0.973 77 29.91 58 96.6 96.6 1209 6 KAPC elev: 15 ft
24475 1:59:31 PM PRO MOD   757 PM Q1 L 0 0.136 1.207 3.254 4.989 145.74 6.393 7.499 208.23 L -1.1902 2.047 1.735 1.404 1.106 77 29.91 58 96.6 96.6 1209 6 KAPC elev: 15 ft
24477 2:02:10 PM PRO MOD   7016 PM Q1 L 0 0.168 1.081 2.759 4.031 195.14 5.134 6.084 235.97 W 6.1951 1.678 1.272 1.103 0.95 77 29.91 58 96.6 96.6 1209 6 KAPC elev: 15 ft
24478 2:06:48 PM PRO MOD   6472 PM Q1 L 0 0.421 1.196 2.942 4.263 188.17 5.539 6.842 160.27 L -1.3135 1.746 1.321 1.276 1.303 77 29.91 58 96.6 96.6 1209 6 KAPC elev: 15 ft
24479 2:06:48 PM PRO MOD   7602 PM Q1 R 0 0.076 1.002 2.655 3.914 197.57 4.977 5.874 252.14 W 1.3135 1.653 1.259 1.063 0.897 77 29.91 58 96.6 96.6 1209 6 KAPC elev: 15 ft
24480 2:10:11 PM PRO MOD   7647 PM Q1 L 0 0.044 1.11 2.894 4.276 179.78 5.441 6.418 227.27 W 0.6248 1.784 1.382 1.165 0.977 77 29.91 58 96.6 96.6 1209 6 KAPC elev: 15 ft
24481 2:10:11 PM PRO MOD   7098 PM Q1 R 0 0.027 1.053 2.775 4.189 166.17 5.63 7.059 149.86 L -0.6248 1.722 1.414 1.441 1.429 77 29.91 58 96.6 96.6 1209 6 KAPC elev: 15 ft
24482 2:26:00 PM PRO MOD   24 PM Q1 R 0 0.36 1.111 2.954 4.788 120.93 6.746 8.662 111.54 W 0 1.843 1.834 1.958 1.916 77 29.91 58 96.6 96.6 1209 6 KAPC elev: 15 ft
24483 2:29:37 PM TOP ALCOHOL FUNNY CAR   726 TAFC T0 R 0 0.16 1.008 2.658 4.156 144.13 5.88 7.71 113.87 W 0 1.65 1.498 1.724 1.83 77 29.91 58 96.6 96.6 1209 6 KAPC elev: 15 ft
24484 2:32:33 PM TOP ALCOHOL FUNNY CAR Bret Williamson 7238 TAFC T0 R 0 0.181 0.985 2.898 5.325 86.38 8.304 11.202 80.63 W 0 1.913 2.427 2.979 2.898 77 29.91 58 96.6 96.6 1209 6 KAPC elev: 15 ft
24486 2:34:08 PM SUPER COMP Michaelyn Roelle 7786 SC T3 R 8.9 0.025 2.006 4.617 6.315 148.27 7.727 8.913 189.63 W 0.072 2.611 1.698 1.412 1.186 77 29.91 58 96.6 96.6 1209 6 KAPC elev: 15 ft
24485 2:34:08 PM SUPER COMP Ed Cox 6317 SC T3 L 8.9 0.052 1.373 4.186 6.088 133.41 7.651 8.958 172.72 L -0.072 2.813 1.902 1.563 1.307 77 29.91 58 96.6 96.6 1209 6 KAPC elev: 15 ft
24488 2:35:16 PM SUPER COMP Tanner Hiatt 7319 SC T3 R 8.9 0.041 1.592 4.43 6.21 143.2 7.667 8.889 184.9 W 0.0031 2.838 1.78 1.457 1.222 77 29.91 58 96.6 96.6 1209 6 KAPC elev: 15 ft
24487 2:35:16 PM SUPER COMP Don Barton 7028 SC T3 L 8.9 0.049 1.446 4.313 6.124 139.95 7.619 8.884 177.44 L -0.0031 2.867 1.811 1.495 1.265 77 29.91 58 96.6 96.6 1209 6 KAPC elev: 15 ft
24489 2:35:56 PM SUPER COMP George Garbiso 785 SC T3 L 8.9 0.13 1.549 4.447 7.004 85.79 9.892 12.923 68.83 L -4.1737 2.898 2.557 2.888 3.031 77 29.91 58 96.6 96.6 1209 6 KAPC elev: 15 ft
24490 2:35:56 PM SUPER COMP Bob Van Popering 7035 SC T3 R 8.9 0.019 1.419 4.074 5.968 132.99 7.543 8.861 171.82 W 4.1737 2.655 1.894 1.575 1.318 77 29.91 58 96.6 96.6 1209 6 KAPC elev: 15 ft
24491 2:37:06 PM SUPER COMP James Warden 7168 SC T3 L 8.9 0.026 1.377 4.124 6.027 133.09 7.6 8.943 163.31 W 0.3708 2.747 1.903 1.573 1.343 77 29.91 58 96.6 96.6 1209 6 KAPC elev: 15 ft
24492 2:37:06 PM SUPER COMP Barry Willoughby 7888 SC T3 R 8.9 0.035 1.457 4.398 6.383 129.78 7.979 9.304 170.99 L -0.3708 2.941 1.985 1.596 1.325 77 29.91 58 96.6 96.6 1209 6 KAPC elev: 15 ft
24493 2:38:03 PM SUPER COMP Lori Warden 7116 SC T3 L 8.9 0.029 1.545 4.157 6.025 133.74 7.601 8.937 165.6 L -0.0958 2.612 1.868 1.576 1.336 77 29.91 58 96.6 96.6 1209 6 KAPC elev: 15 ft
24494 2:38:03 PM SUPER COMP Greg Krause 569 SC T3 R 8.9 0.008 1.46 4.268 6.104 138.37 7.609 8.863 180.26 W 0.0958 2.808 1.836 1.505 1.254 77 29.91 58 96.6 96.6 1209 6 KAPC elev: 15 ft
24496 2:39:00 PM SUPER COMP Kevin Romfo 7719 SC T3 R 8.9 0.014 1.322 4.072 5.99 131.16 7.586 8.929 167.34 L -0.1268 2.75 1.918 1.596 1.343 77 29.91 58 96.6 96.6 1209 6 KAPC elev: 15 ft
24495 2:39:00 PM SUPER COMP John Randell 7911 SC T3 L 8.9 0.011 1.315 3.789 5.736 127.43 7.398 8.806 159.23 W 0.1268 2.474 1.947 1.662 1.408 77 29.91 58 96.6 96.6 1209 6 KAPC elev: 15 ft
24498 2:39:59 PM SUPER COMP Thomas Bayer 71 SC T3 R 8.9 0.196 1.101 3.128 4.862 141.24 6.375 7.669 173.63 W 1.1118 2.027 1.734 1.513 1.294 77 29.91 58 96.6 96.6 1209 6 KAPC elev: 15 ft
24497 2:39:59 PM SUPER COMP Dave Alves 7806 SC T3 L 8.9 0.057 1.625 4.504 6.279 144.41 7.72 8.919 188.02 L -1.1118 2.879 1.775 1.441 1.199 77 29.91 58 96.6 96.6 1209 6 KAPC elev: 15 ft
24499 2:40:56 PM SUPER COMP Eric Reyes 7644 SC T3 R 8.9 0.437 0 0 0 0 0 0 0   0 0 0 0 0 77 29.91 58 96.6 96.6 1209 6 KAPC elev: 15 ft
24501 2:41:41 PM SUPER COMP Eric Reyes 7644 SC T3 R 8.9 0.032 1.78 4.401 6.21 138.58 7.727 9.008 175.94 W 0.2995 2.621 1.809 1.517 1.281 77 29.91 58 96.6 96.6 1209 6 KAPC elev: 15 ft
24500 2:41:41 PM SUPER COMP   7117 SC T3 L 0 0.487 1.289 3.643 5.631 123.16 7.365 8.852 150.58 L -0.2995 2.354 1.988 1.734 1.487 77 29.91 58 96.6 96.6 1209 6 KAPC elev: 15 ft
24502 2:43:10 PM SUPER COMP Justin Rebrovich 7603 SC T3 L 8.9 0.026 1.224 3.82 5.773 127.13 7.424 8.803 164.03 W 0.1381 2.596 1.953 1.651 1.379 77 29.91 58 96.6 96.6 1209 6 KAPC elev: 15 ft
24503 2:43:10 PM SUPER COMP Ed Hauter JR 6092 SC T3 R 8.9 0.027 1.704 4.387 6.183 140.01 7.68 8.94 178.9 L -0.1381 2.683 1.796 1.497 1.26 77 29.91 58 96.6 96.6 1209 6 KAPC elev: 15 ft
24505 2:44:19 PM SUPER COMP Steve Williams 735 SC T3 R 8.9 0.017 1.472 4.421 6.237 143.22 7.675 8.887 183.72 W 0.0042 2.949 1.816 1.438 1.212 77 29.91 58 96.6 96.6 1209 6 KAPC elev: 15 ft
24504 2:44:19 PM SUPER COMP Madison Whitten 7296 SC T3 L 8.9 0.031 1.454 4.212 6.065 136.59 7.596 8.877 176.07 L -0.0042 2.758 1.853 1.531 1.281 77 29.91 58 96.6 96.6 1209 6 KAPC elev: 15 ft
24507 2:45:23 PM SUPER COMP Steve Parsons 701Y SC T3 R 8.9 0.053 1.502 4.212 6.063 136.33 7.598 8.881 176.37 W 0.0383 2.71 1.851 1.535 1.283 77 29.91 58 96.6 96.6 1209 6 KAPC elev: 15 ft
24506 2:45:23 PM SUPER COMP Steve Hamilton 3896 SC T3 L 8.9 0.044 1.258 4.048 6.017 130.22 7.606 8.928 170.97 L -0.0383 2.79 1.969 1.589 1.322 77 29.91 58 96.6 96.6 1209 6 KAPC elev: 15 ft
24509 2:46:20 PM SUPER COMP Paige Lundeen 7600 SC T3 R 8.9 -0.003 1.542 4.286 6.107 138.83 7.618 8.894 176.49 W 0.0572 2.744 1.821 1.511 1.276 77 29.91 58 96.6 96.6 1209 6 KAPC elev: 15 ft
24508 2:46:20 PM SUPER COMP Martin Clevenger 7260 SC T3 L 8.9 0.049 1.38 4.062 5.975 131.81 7.566 8.899 169.25 L -0.0572 2.682 1.913 1.591 1.333 77 29.91 58 96.6 96.6 1209 6 KAPC elev: 15 ft
24510 2:47:19 PM SUPER COMP Cody Webber 7125 SC T3 L 8.9 0.037 1.531 4.283 6.117 137.57 7.638 8.912 177.02 L -0.0142 2.752 1.834 1.521 1.274 77 29.91 58 96.6 96.6 1209 6 KAPC elev: 15 ft
24511 2:47:19 PM SUPER COMP Allison McKoane 7002 SC T3 R 8.9 0.015 1.552 4.387 6.202 140.25 7.684 8.92 183.12 W 0.0142 2.835 1.815 1.482 1.236 77 29.91 58 96.6 96.6 1209 6 KAPC elev: 15 ft
24513 2:48:12 PM SUPER COMP Marko Perivolaris 6 SC T3 R 8.9 -0.014 1.493 4.37 6.211 140.3 7.689 8.919 183.79 L -0.0261 2.877 1.841 1.478 1.23 77 29.91 58 96.6 96.6 1209 6 KAPC elev: 15 ft
24512 2:48:12 PM SUPER COMP Beau Hicks 7696 SC T3 L 8.9 -0.013 1.446 4.137 6.016 133.72 7.583 8.892 172.43 W 0.0261 2.691 1.879 1.567 1.309 77 29.91 58 96.6 96.6 1209 6 KAPC elev: 15 ft
24515 2:49:06 PM SUPER COMP Peter Biondo 1136 SC T3 R 8.9 0.012 1.039 2.914 4.512 153.44 5.896 7.076 190.65 W 1.7789 1.875 1.598 1.384 1.18 77 29.91 58 96.6 96.6 1209 6 KAPC elev: 15 ft
24514 2:49:06 PM SUPER COMP Kevin Motter 7837 SC T3 L 8.9 -0.005 1.424 4.096 5.975 133.62 7.547 8.871 170.04 L -1.7789 2.672 1.879 1.572 1.324 77 29.91 58 96.6 96.6 1209 6 KAPC elev: 15 ft
24516 2:50:13 PM SUPER COMP Jason Rosenbaum 775T SC T3 L 8.9 -0.004 1.339 3.91 5.866 127.2 7.531 8.943 159.29 L -0.0531 2.571 1.956 1.665 1.412 77 29.91 58 96.6 96.6 1209 6 KAPC elev: 15 ft
24517 2:50:13 PM SUPER COMP C.J. Spernak 7757 SC T3 R 8.9 0 1.431 4.256 6.118 137.5 7.627 8.886 179.28 W 0.0531 2.825 1.862 1.509 1.259 77 29.91 58 96.6 96.6 1209 6 KAPC elev: 15 ft
24519 2:51:03 PM SUPER COMP Greg Boutte 76 SC T3 R 8.9 0.024 1.479 4.316 6.152 138.19 7.661 8.926 178.78 L -0.0158 2.837 1.836 1.509 1.265 77 29.91 58 96.6 96.6 1209 6 KAPC elev: 15 ft
24518 2:51:03 PM SUPER COMP Chad Webber 7209 SC T3 L 8.9 0.006 1.516 4.21 6.072 135.16 7.623 8.929 172.56 W 0.0158 2.694 1.862 1.551 1.306 77 29.91 58 96.6 96.6 1209 6 KAPC elev: 15 ft
24521 2:52:02 PM SUPER COMP Steve Johnson 745 SC T3 R 8.9 0.013 1.422 4.093 5.979 133.17 7.558 8.893 168.51 W 0.1968 2.671 1.886 1.579 1.335 77 29.91 58 96.6 96.6 1209 6 KAPC elev: 15 ft
24520 2:52:02 PM SUPER COMP Keith Winters 701D SC T3 L 8.9 0.01 1.733 4.462 6.293 137.86 7.814 9.092 176.01 L -0.1968 2.729 1.831 1.521 1.278 77 29.91 58 96.6 96.6 1209 6 KAPC elev: 15 ft
24522 2:53:19 PM SUPER COMP Ken Mostowich 6173 SC T3 R 8.9 0.015 1.333 4.186 6.127 135.17 7.634 8.866 184.27 W 0 2.853 1.941 1.507 1.232 77 29.91 58 96.6 96.6 1209 6 KAPC elev: 15 ft
24524 2:54:28 PM SUPER STOCK John Cantlay 7004 SS/CM T3 R 9.5 -0.1 1.425 4.097 6.243 115.42 8.08 9.628 146.05 W 1.6176 2.672 2.146 1.837 1.548 77 29.91 58 96.6 96.6 1209 6 KAPC elev: 15 ft
24523 2:54:28 PM SUPER STOCK Douglas Colley 7922 SS/VX T3 L 11.6 0.003 1.494 4.502 7.038 96.06 9.257 11.142 120.82 L -1.6176 3.008 2.536 2.219 1.885 77 29.91 58 96.6 96.6 1209 6 KAPC elev: 15 ft
24526 2:55:31 PM SUPER STOCK Don Keen 75 SS/KA T3 R 11.25 0.056 1.391 4.146 6.511 103.32 8.575 10.335 127.91 W 0.8874 2.755 2.365 2.064 1.76 77 29.91 58 96.6 96.6 1209 6 KAPC elev: 15 ft
24525 2:55:31 PM SUPER STOCK Anthony Baeza 7513 GT/J T3 L 10.6 0.31 1.561 4.494 6.989 98.37 9.141 10.968 122.71 L -0.8874 2.933 2.495 2.152 1.827 77 29.91 58 96.6 96.6 1209 6 KAPC elev: 15 ft
24527 2:56:23 PM SUPER STOCK Tod Haste 611T GT/MA T3 L 11.2 0.046 1.434 4.293 6.754 99.41 8.902 10.735 122.74 L -1.2862 2.859 2.461 2.148 1.833 77 29.91 58 96.6 96.6 1209 6 KAPC elev: 15 ft
24528 2:56:23 PM SUPER STOCK Kyle Rizzoli 73 SS/CA T3 R 10.05 0 1.316 3.847 6.01 112.78 7.896 9.495 140.72 W 1.2862 2.531 2.163 1.886 1.599 77 29.91 58 96.6 96.6 1209 6 KAPC elev: 15 ft
24529 2:57:58 PM SPORTSMAN MOTORCYCLE Ron Alves 73 SMC T3 L 0 0.028 1.276 3.359 5.142 140.07 6.731 8.107 162.92 W 0.5497 2.083 1.783 1.589 1.376 77 29.91 58 96.6 96.6 1209 6 KAPC elev: 15 ft
24530 2:57:58 PM SPORTSMAN MOTORCYCLE Pete Miclette Jr 7001 SMC T3 R 0 0.027 1.252 3.53 5.477 125.52 7.189 8.657 152.78 L -0.5497 2.278 1.947 1.712 1.468 77 29.91 58 96.6 96.6 1209 6 KAPC elev: 15 ft
24532 2:58:46 PM SPORTSMAN MOTORCYCLE Eric Jaquith 72 SMC T3 R 0 0.079 1.509 3.979 6.092 115.04 7.965 9.583 138.19 W 0.1606 2.47 2.113 1.873 1.618 77 29.89 56 96.5 96.5 1232 10 KAPC elev: 15 ft
24531 2:58:46 PM SPORTSMAN MOTORCYCLE D.J. Miclette 754 SMC T3 L 0 0.045 1.451 3.997 6.187 111.5 8.116 9.777 135.01 L -0.1606 2.546 2.19 1.929 1.661 77 29.89 56 96.5 96.5 1232 10 KAPC elev: 15 ft
24534 2:59:42 PM SPORTSMAN MOTORCYCLE Gaston Evans G779 SMC T3 R 0 -0.203 1.764 4.522 6.753 109.75 8.68 10.316 138.07 L -1.1985 2.758 2.231 1.927 1.636 77 29.89 56 96.5 96.5 1232 10 KAPC elev: 15 ft
24533 2:59:42 PM SPORTSMAN MOTORCYCLE Dylan Hendrix 7010 SMC T3 L 0 0.057 1.304 3.642 5.622 123.49 7.361 8.858 149.75 W 1.1985 2.338 1.98 1.739 1.497 77 29.89 56 96.5 96.5 1232 10 KAPC elev: 15 ft
24535 3:00:54 PM SPORTSMAN MOTORCYCLE   7777 SMC T3 R 0 0.03 1.256 3.565 5.562 118.71 7.334 8.889 143.41 W 8.8628 2.309 1.997 1.772 1.555 77 29.89 56 96.5 96.5 1232 10 KAPC elev: 15 ft
24537 3:01:51 PM SPORTSMAN MOTORCYCLE Don DePeel 61 SMC T3 R 0 0.032 1.304 3.47 5.332 130.89 6.982 8.409 157.08 L -0.1106 2.166 1.862 1.65 1.427 77 29.89 56 96.5 96.5 1232 10 KAPC elev: 15 ft
24536 3:01:51 PM SPORTSMAN MOTORCYCLE Anthony Vanetti 330 SMC T3 L 0 0.081 1.196 3.395 5.238 132.23 6.859 8.25 160.38 W 0.1106 2.199 1.843 1.621 1.391 77 29.89 56 96.5 96.5 1232 10 KAPC elev: 15 ft
24538 3:03:13 PM TOP DRAGSTER Ed Schuck Jr 7706 TD T3 L 0 0.489 1.108 3.089 4.766 146.81 6.218 7.455 182.43 L -0.2601 1.981 1.677 1.452 1.237 77 29.89 56 96.5 96.5 1232 10 KAPC elev: 15 ft
24539 3:03:13 PM TOP DRAGSTER Duane Daniel 7074 TD T3 R 0 0.005 1.246 3.356 5.028 147.86 6.462 7.679 185.21 W 0.2601 2.11 1.672 1.434 1.217 77 29.89 56 96.5 96.5 1232 10 KAPC elev: 15 ft
24540 3:04:37 PM TOP DRAGSTER Mark Colton 6087 TD T3 L 0 0.027 1.05 2.839 4.341 164.13 5.639 6.746 202.76 L -0.6515 1.789 1.502 1.298 1.107 77 29.89 56 96.5 96.5 1232 10 KAPC elev: 15 ft
24541 3:04:37 PM TOP DRAGSTER Butch Stroupe 733A TD T3 R 0 0.042 0.98 2.595 3.935 183.99 5.092 6.08 226.92 W 0.6515 1.615 1.34 1.157 0.988 77 29.89 56 96.5 96.5 1232 10 KAPC elev: 15 ft
24542 3:05:43 PM TOP DRAGSTER Phillip Duerr 7700 TD T3 L 0 0.557 1.195 3.204 4.922 136.32 6.572 8.157 131.99 L -2.1265 2.009 1.718 1.65 1.585 77 29.89 56 96.5 96.5 1232 10 KAPC elev: 15 ft
24543 3:05:43 PM TOP DRAGSTER Melissa Fedrick 7733 TD T3 R 0 0.022 1.01 2.746 4.208 167.61 5.48 6.566 206.73 W 2.1265 1.736 1.462 1.272 1.086 77 29.89 56 96.5 96.5 1232 10 KAPC elev: 15 ft
24544 3:13:21 PM TOP DRAGSTER Tom Koenen 713 TD T3 L 0 0.022 1.063 2.884 4.418 160.1 5.747 6.878 198.76 W 0.2442 1.821 1.534 1.329 1.131 77 29.89 56 96.5 96.5 1232 10 KAPC elev: 15 ft
24545 3:13:21 PM TOP DRAGSTER Jeff Havens 6031 TD T3 R 0 -0.004 1.068 2.955 4.563 152.85 5.957 7.148 188.31 L -0.2442 1.887 1.608 1.394 1.191 77 29.89 56 96.5 96.5 1232 10 KAPC elev: 15 ft
24546 3:14:45 PM TOP DRAGSTER Peyton Januik 7212 TD T3 L 0 0.269 0.994 2.661 3.997 185.43 5.135 6.09 236.01 W 6.3636 1.667 1.336 1.138 0.955 77 29.89 56 96.5 96.5 1232 10 KAPC elev: 15 ft
24548 3:18:02 PM TOP DRAGSTER Jon Bradford 7848 TD T3 R 0 -0.005 1.046 2.676 3.997 187.89 5.122 6.073 236.59 W 0.0908 1.63 1.321 1.125 0.951 77 29.89 56 96.5 96.5 1232 10 KAPC elev: 15 ft
24547 3:18:02 PM TOP DRAGSTER Bobby Ray McMahan 7029 TD T3 L 0 0.003 1.016 2.656 4.003 183.19 5.165 6.155 226.7 L -0.0908 1.64 1.347 1.162 0.99 77 29.89 56 96.5 96.5 1232 10 KAPC elev: 15 ft
24550 3:19:38 PM TOP DRAGSTER Linzi Meserve 752T TD T3 R 0 0.003 1.086 2.986 4.597 149.8 6.268 8.057 116.36 L -0.7314 1.9 1.611 1.671 1.789 77 29.89 56 96.5 96.5 1232 10 KAPC elev: 15 ft
24549 3:19:38 PM TOP DRAGSTER Andy Spiegel 7160 TD T3 L 0 -0.023 1.011 2.792 4.31 161.65 5.778 7.352 131.22 W 0.7314 1.781 1.518 1.468 1.574 77 29.89 56 96.5 96.5 1232 10 KAPC elev: 15 ft
24551 3:20:27 PM TOP DRAGSTER Brianna Wiens 7902 TD T3 R 0 0.028 1.016 2.84 4.387 158.76 5.733 6.886 194.8 W 0 1.824 1.547 1.346 1.153 77 29.89 56 96.5 96.5 1232 10 KAPC elev: 15 ft
24552 3:22:04 PM TOP DRAGSTER Michaelyn Roelle 7786 TD T3 L 0 0.038 1.006 2.761 4.246 165.46 5.535 6.631 205.32 L -0.4788 1.755 1.485 1.289 1.096 77 29.89 56 96.5 96.5 1232 10 KAPC elev: 15 ft
24553 3:22:04 PM TOP DRAGSTER John Harry Bond 782 TD T3 R 0 0.015 0.993 2.644 4.011 179.9 5.188 6.176 228.65 W 0.4788 1.651 1.367 1.177 0.988 77 29.89 56 96.5 96.5 1232 10 KAPC elev: 15 ft
24554 3:23:41 PM TOP DRAGSTER James Warden 7168 TD T3 R 0 -0.003 1.101 3.098 4.792 145 6.261 7.513 179.71 W 0 1.997 1.694 1.469 1.252 77 29.89 56 96.5 96.5 1232 10 KAPC elev: 15 ft
24555 3:25:09 PM TOP DRAGSTER Mike Mendenhall 710 TD T3 L 0 0.02 1.056 2.89 4.377 164.83 5.662 6.743 209.14 W 0 1.834 1.487 1.285 1.081 77 29.89 56 96.5 96.5 1232 10 KAPC elev: 15 ft
24556 3:26:38 PM COMPETITION ELIMINATOR Scott McClay 7235 C/ED T3 L 7.93 0.016 1.032 2.938 4.572 150.03 5.994 7.211 184.47 W 0.6205 1.906 1.634 1.422 1.217 77 29.89 56 96.5 96.5 1232 10 KAPC elev: 15 ft
24557 3:26:38 PM COMPETITION ELIMINATOR   788 ? T3 R 0 0.444 1.09 3.037 4.699 147.73 6.149 7.403 178.19 L -0.6205 1.947 1.662 1.45 1.254 77 29.89 56 96.5 96.5 1232 10 KAPC elev: 15 ft
24559 3:28:07 PM COMPETITION ELIMINATOR Wayne Willemsen 741W B/ND T3 R 7.56 -0.265 1.252 3.478 5.323 133.59 6.921 8.299 158.15 W 0.4998 2.226 1.845 1.598 1.378 77 29.89 56 96.5 96.5 1232 10 KAPC elev: 15 ft
24558 3:28:07 PM COMPETITION ELIMINATOR Brian Moscini 768M G/AA T3 L 8.87 0.046 1.175 3.45 5.383 126.91 7.059 8.487 157.17 L -0.4998 2.275 1.933 1.676 1.428 77 29.89 56 96.5 96.5 1232 10 KAPC elev: 15 ft
24561 3:29:27 PM COMPETITION ELIMINATOR Tom Mettler 7098 PST T3 R 8.07 -0.004 1.054 3.03 4.699 147.28 6.142 7.362 184.93 W 7.3293 1.976 1.669 1.443 1.22 77 29.89 56 96.5 96.5 1232 10 KAPC elev: 15 ft
24560 3:29:27 PM COMPETITION ELIMINATOR Randy Jones 7230 C/TA T3 L 9.01 0.029 1.166 4.882 9.929 43.12 0 0 0 L -7.3293 3.716 5.047 0 0 77 29.89 56 96.5 96.5 1232 10 KAPC elev: 15 ft
24563 3:31:47 PM SUPER GAS Roger Kato 7117 SG T3 R 9.9 0.021 1.721 5.091 7.081 129.98 8.658 9.947 176.33 W 0.0816 3.37 1.99 1.577 1.289 77 29.89 56 96.5 96.5 1232 10 KAPC elev: 15 ft
24562 3:31:47 PM SUPER GAS Janice Hogan 7186 SG T3 L 9.9 0.009 1.501 4.575 6.756 116.83 8.542 10.04 150.51 L -0.0816 3.074 2.181 1.786 1.498 77 29.89 56 96.5 96.5 1232 10 KAPC elev: 15 ft
24564 3:32:33 PM SUPER GAS Pete Zak 701P SG T3 L 9.9 0.061 1.443 4.688 6.852 120.68 8.545 9.933 163.37 L -0.0644 3.245 2.164 1.693 1.388 77 29.89 56 96.5 96.5 1232 10 KAPC elev: 15 ft
24565 3:32:33 PM SUPER GAS Larry Scarth 7267 SG T3 R 9.9 0.06 1.456 4.661 6.808 121.89 8.486 9.87 163.43 W 0.0644 3.205 2.147 1.678 1.384 77 29.89 56 96.5 96.5 1232 10 KAPC elev: 15 ft
24567 3:33:20 PM SUPER GAS Mike Collins 7779 SG T3 R 9.9 0.023 1.521 4.223 6.401 112.7 8.303 9.946 136.34 W 6.5102 2.702 2.178 1.902 1.643 77 29.89 56 96.5 96.5 1232 10 KAPC elev: 15 ft
24566 3:33:20 PM SUPER GAS Doug Romfo 7216 SG T3 L 9.9 0.172 2.339 6.456 9.967 68.37 13.222 16.307 69.73 L -6.5102 4.117 3.511 3.255 3.085 77 29.89 56 96.5 96.5 1232 10 KAPC elev: 15 ft
24569 3:34:15 PM SUPER GAS Mark Yeager 7638 SG T3 R 9.9 0.033 1.48 4.644 6.802 115.34 8.541 9.994 155.99 L -0.1081 3.164 2.158 1.739 1.453 77 29.89 56 96.5 96.5 1232 10 KAPC elev: 15 ft
24568 3:34:15 PM SUPER GAS   7264 SG T3 L 0 0.049 1.751 4.683 6.742 122.27 8.448 9.87 159.04 W 0.1081 2.932 2.059 1.706 1.422 77 29.89 56 96.5 96.5 1232 10 KAPC elev: 15 ft
24570 3:34:57 PM SUPER GAS Mark Lewis 712L SG T3 L 9.9 0.002 1.632 4.931 6.982 127.41 8.597 9.927 170.41 W 0.0047 3.299 2.051 1.615 1.33 77 29.89 56 96.5 96.5 1232 10 KAPC elev: 15 ft
24571 3:34:57 PM SUPER GAS Diana Anderson 6683 SG T3 R 9.9 0.053 1.525 4.706 6.77 123.37 8.462 9.88 159.01 L -0.0047 3.181 2.064 1.692 1.418 77 29.89 56 96.5 96.5 1232 10 KAPC elev: 15 ft
24572 3:35:37 PM SUPER GAS Peter Bothe 7019 SG T3 L 9.9 0.011 1.579 4.515 6.666 116.45 8.47 9.984 149.38 L -0.0014 2.936 2.151 1.804 1.514 77 29.89 56 96.5 96.5 1232 10 KAPC elev: 15 ft
24573 3:35:37 PM SUPER GAS Don Anderson 6832 SG T3 R 9.9 0.102 1.547 4.803 6.853 124.8 8.507 9.892 163.67 W 0.0014 3.256 2.05 1.654 1.385 77 29.89 56 96.5 96.5 1232 10 KAPC elev: 15 ft
24574 3:36:23 PM SUPER GAS Ryan Herem 79 SG T3 L 9.9 0.003 1.718 5.031 7.058 129.16 8.643 9.938 175.11 L -0.0652 3.313 2.027 1.585 1.295 77 29.89 56 96.5 96.5 1232 10 KAPC elev: 15 ft
24575 3:36:23 PM SUPER GAS Kimberly Will 7471 SG T3 R 9.9 0.012 1.623 4.912 6.939 128.9 8.538 9.864 170.71 W 0.0652 3.289 2.027 1.599 1.326 77 29.89 56 96.5 96.5 1232 10 KAPC elev: 15 ft
24577 3:37:11 PM SUPER GAS Joe Greco 7138 SG T3 R 9.9 0.054 1.679 5.014 7.168 119.61 8.876 10.286 160.96 L -0.4211 3.335 2.154 1.708 1.41 77 29.89 56 96.5 96.5 1232 10 KAPC elev: 15 ft
24576 3:37:11 PM SUPER GAS Gary Mignacca 743 SG T3 L 9.9 0.012 1.48 4.348 6.524 114.77 8.359 9.907 145.72 W 0.4211 2.868 2.176 1.835 1.548 77 29.89 56 96.5 96.5 1232 10 KAPC elev: 15 ft
24579 3:38:06 PM SUPER GAS John Parrino 7592 SG T3 R 9.9 0.004 1.445 4.408 6.564 116.31 8.379 9.914 146.37 W 0.2249 2.963 2.156 1.815 1.535 77 29.89 56 96.5 96.5 1232 10 KAPC elev: 15 ft
24578 3:38:06 PM SUPER GAS Chris Cannon 2 SG T3 L 9.9 0.005 1.733 5.281 7.269 130.91 8.841 10.137 174.66 L -0.2249 3.548 1.988 1.572 1.296 77 29.89 56 96.5 96.5 1232 10 KAPC elev: 15 ft
24580 3:38:38 PM SUPER GAS Val Torres 7809 SG T3 L 9.9 0.014 1.455 4.514 6.679 124.6 8.309 9.637 170.69 W 0.4205 3.059 2.165 1.63 1.328 77 29.89 56 96.5 96.5 1232 10 KAPC elev: 15 ft
24581 3:38:38 PM SUPER GAS Scott Morgan 737M SG T3 R 9.9 0.141 1.465 4.123 6.354 110.16 8.286 9.93 137.13 L -0.4205 2.658 2.231 1.932 1.644 77 29.89 56 96.5 96.5 1232 10 KAPC elev: 15 ft
24582 3:38:53 PM SUPER GAS Ted Seipel 7829 SG T3 L 9.9 0.031 1.406 4.09 6.278 112.17 8.189 9.864 132.9 W 0.112 2.684 2.188 1.911 1.675 77 29.89 56 96.5 96.5 1232 10 KAPC elev: 15 ft
24583 3:38:53 PM SUPER GAS Richard Stone 7558 SG T3 R 9.9 0.024 1.524 4.565 6.727 117.51 8.502 9.983 152.92 L -0.112 3.041 2.162 1.775 1.481 77 29.89 56 96.5 96.5 1232 10 KAPC elev: 15 ft
24584 3:40:00 PM SUPER GAS Mike Willoughby 745 SG T3 L 9.9 0.033 1.63 4.881 6.952 125.47 8.592 9.947 167.07 L -0.1328 3.251 2.071 1.64 1.355 77 29.89 56 96.5 96.5 1232 10 KAPC elev: 15 ft
24585 3:40:00 PM SUPER GAS Mike Boehner 5169 SG T3 R 9.9 0.028 1.597 4.82 6.837 127.22 8.468 9.82 167.78 W 0.1328 3.223 2.017 1.631 1.352 77 29.89 56 96.5 96.5 1232 10 KAPC elev: 15 ft
24587 3:40:26 PM SUPER GAS Steve Williams 735 SG T3 R 9.9 0.035 1.502 4.876 6.999 122.43 8.574 9.862 177.02 W 0.0026 3.374 2.123 1.575 1.288 77 29.89 56 96.5 96.5 1232 10 KAPC elev: 15 ft
24586 3:40:26 PM SUPER GAS Ken Mostowich 6173 SG T3 L 9.9 -0.013 1.679 4.872 6.945 125.18 8.575 9.912 169.87 L -0.0026 3.193 2.073 1.63 1.337 77 29.89 56 96.5 96.5 1232 10 KAPC elev: 15 ft
24589 3:41:29 PM SUPER GAS Justin Strom 7576 SG T3 R 9.9 0.016 1.529 4.171 6.116 129.19 7.734 9.087 167.32 W 1.5763 2.642 1.945 1.618 1.353 77 29.89 56 96.5 96.5 1232 10 KAPC elev: 15 ft
24588 3:41:29 PM SUPER GAS   7000 SG T3 L 0 0.472 1.759 4.859 6.979 118.82 8.738 10.207 153.95 L -1.5763 3.1 2.12 1.759 1.469 77 29.89 56 96.5 96.5 1232 10 KAPC elev: 15 ft
24590 3:42:22 PM SUPER GAS Larry Bradshaw 7332 SG T3 L 9.9 0.146 1.623 4.83 6.918 123.73 8.583 9.957 165.07 L -0.1262 3.207 2.088 1.665 1.374 77 29.89 56 96.5 96.5 1232 10 KAPC elev: 15 ft
24591 3:42:22 PM SUPER GAS   7883 SG T3 R 0 0.071 1.336 4.434 6.608 116.76 8.395 9.906 149.31 W 0.1262 3.098 2.174 1.787 1.511 77 29.89 56 96.5 96.5 1232 10 KAPC elev: 15 ft
24592 3:43:29 PM SUPER GAS Rob Willis 683 SG T3 L 9.9 0.025 1.413 4.683 6.819 123.87 8.466 9.811 168.85 W 0.0923 3.27 2.136 1.647 1.345 77 29.89 56 96.5 96.5 1232 10 KAPC elev: 15 ft
24593 3:43:29 PM SUPER GAS Marko Perivolaris 7585 SG T3 R 9.9 0.01 1.671 4.887 6.993 125.79 8.605 9.918 173.21 L -0.0923 3.216 2.106 1.612 1.313 77 29.89 56 96.5 96.5 1232 10 KAPC elev: 15 ft
24595 3:44:29 PM SUPER GAS Randy Cloud 7163 SG T3 R 9.9 0.033 1.422 4.264 6.455 113.57 8.312 9.881 143.76 W 1.0873 2.842 2.191 1.857 1.569 77 29.89 56 96.5 96.5 1232 10 KAPC elev: 15 ft
24594 3:44:29 PM SUPER GAS   6569 SG T3 L 0 0.125 1.492 5.159 7.616 111.51 9.417 10.876 156.08 L -1.0873 3.667 2.457 1.801 1.459 77 29.89 56 96.5 96.5 1232 10 KAPC elev: 15 ft
24596 3:45:43 PM SUPER GAS Nikki Cannon 681N SG T3 L 9.9 0.097 1.562 5.249 7.574 113.07 9.386 10.872 152.62 W 1.1035 3.687 2.325 1.812 1.486 77 29.89 56 96.5 96.5 1232 10 KAPC elev: 15 ft
24597 3:45:43 PM SUPER GAS Linzi Theobald Meserve 752T SG T3 R 9.9 0.009 1.915 4.887 7.109 98.54 9.572 12.063 85.56 L -1.1035 2.972 2.222 2.463 2.491 77 29.89 56 96.5 96.5 1232 10 KAPC elev: 15 ft
24598 3:46:36 PM SUPER GAS   D703 SG T3 L 0 0.097 1.366 4.001 6.254 108.82 8.217 9.89 134.47 W 0 2.635 2.253 1.963 1.673 77 29.89 56 96.5 96.5 1232 10 KAPC elev: 15 ft
24599 3:48:30 PM TOP SPORTSMAN Randy Balough 717 TS T3 L 0 0.044 1.051 3.009 5.264 95.62 7.854 10.576 76.94 L -3.7816 1.958 2.255 2.59 2.722 77 29.89 56 96.5 96.5 1232 10 KAPC elev: 15 ft
24600 3:48:30 PM TOP SPORTSMAN Chris Newman 7598 TS T3 R 0 0.044 1.012 2.857 4.381 162.14 5.687 6.795 203.25 W 3.7816 1.845 1.524 1.306 1.108 77 29.89 56 96.5 96.5 1232 10 KAPC elev: 15 ft
24601 3:50:08 PM TOP SPORTSMAN Keith White 7149 TS T3 L 0 0.208 1.052 2.929 4.49 157.72 5.839 6.987 195.99 W 7.1512 1.877 1.561 1.349 1.148 77 29.89 56 96.5 96.5 1232 10 KAPC elev: 15 ft
24602 3:51:27 PM TOP SPORTSMAN Paul Mitsos 7534 TS T3 L 0 0.003 1.028 2.972 4.595 152.23 5.987 7.162 191.95 W 0.3335 1.944 1.623 1.392 1.175 77 29.89 56 96.5 96.5 1232 10 KAPC elev: 15 ft
24603 3:51:27 PM TOP SPORTSMAN Chris Esrick 7398 TS T3 R 0 0.029 1.099 3.061 4.707 149.25 6.134 7.469 159.25 L -0.3335 1.962 1.646 1.427 1.335 77 29.89 56 96.5 96.5 1232 10 KAPC elev: 15 ft
24605 3:53:08 PM TOP SPORTSMAN Stephanie Warn-Skaggs 7315 TS T3 R 0 -0.01 1.093 3.789 6.056 115.72 8.093 10.224 98.37 L -2.9083 2.696 2.267 2.037 2.131 77 29.89 56 96.5 96.5 1232 10 KAPC elev: 15 ft
24604 3:53:08 PM TOP SPORTSMAN Raul Perez 721P TS T3 L 0 0.022 1.089 3.113 4.743 152.24 6.126 7.284 195 W 2.9083 2.024 1.63 1.383 1.158 77 29.89 56 96.5 96.5 1232 10 KAPC elev: 15 ft
24606 3:54:44 PM TOP SPORTSMAN Kelly Harper 77 TS T3 L 0 -0.004 1.036 2.94 4.527 155.49 5.895 7.057 193.43 W 1.8555 1.904 1.587 1.368 1.162 77 29.89 56 96.5 96.5 1232 10 KAPC elev: 15 ft
24607 3:54:44 PM TOP SPORTSMAN Jessie Wooton 7377 TS T3 R 0 0.156 1.199 4.101 5.947 139.36 7.427 8.752 159.38 L -1.8555 2.902 1.846 1.48 1.325 77 29.89 56 96.5 96.5 1232 10 KAPC elev: 15 ft
24609 3:56:07 PM TOP SPORTSMAN Mike Williams 6646 TS T3 R 0 0.007 1.007 2.854 4.392 161.04 5.701 6.803 204.79 L -0.6108 1.847 1.538 1.309 1.102 77 29.89 56 96.5 96.5 1232 10 KAPC elev: 15 ft
24608 3:56:07 PM TOP SPORTSMAN Bryan LaFlam 730 TS T3 L 0 0.064 1.013 2.691 4.028 184.7 5.171 6.136 233.64 W 0.6108 1.678 1.337 1.143 0.965 77 29.89 56 96.5 96.5 1232 10 KAPC elev: 15 ft
24611 3:58:46 PM TOP SPORTSMAN Steve Galileo 7894 TS T3 R 0 0.015 1.025 2.901 4.463 158.35 5.8 6.928 199.49 L -0.5245 1.876 1.562 1.337 1.128 76 29.88 58 96.7 96.7 1175 13 KAPC elev: 15 ft
24610 3:58:46 PM TOP SPORTSMAN Chip Rumis 7449 TS T3 L 0 0.109 1.014 2.724 4.122 177.35 5.31 6.31 225.26 W 0.5245 1.71 1.398 1.188 1 76 29.88 58 96.7 96.7 1175 13 KAPC elev: 15 ft
24613 4:00:01 PM TOP SPORTSMAN Paul Gladden 766M TS T3 R 0 0.057 1.052 2.913 4.455 157.28 5.781 6.911 199.52 L -0.0407 1.861 1.542 1.326 1.13 76 29.88 58 96.7 96.7 1175 13 KAPC elev: 15 ft
24612 4:00:01 PM TOP SPORTSMAN Doug Crumlich 78 TS T3 L 0 0.047 1.025 2.882 4.432 159.4 5.76 6.881 201.19 W 0.0407 1.857 1.55 1.328 1.121 76 29.88 58 96.7 96.7 1175 13 KAPC elev: 15 ft
24614 4:01:04 PM TOP SPORTSMAN Paul Snell 6541 TS T3 R 0 -0.055 1.045 2.946 4.578 149.45 6.178 7.856 124.88 W 0 1.901 1.632 1.6 1.678 76 29.88 58 96.7 96.7 1175 13 KAPC elev: 15 ft
24615 4:04:20 PM TOP SPORTSMAN Jeff Connelly 7151 TS T3 R 0 0.037 1.111 2.932 4.388 169.57 5.626 6.666 217.18 W 0 1.821 1.456 1.238 1.04 76 29.88 58 96.7 96.7 1175 13 KAPC elev: 15 ft
24616 4:05:36 PM STOCK ELIMINATOR Nanette Stein 7022 O/SA T4 L 13.15 -0.058 1.638 5.014 7.933 83.74 10.48 12.649 103.86 L -1.7924 3.376 2.919 2.547 2.169 76 29.88 58 96.7 96.7 1175 13 KAPC elev: 15 ft
24617 4:05:36 PM STOCK ELIMINATOR Larry Gilley 4 E/SA T4 R 11.7 0.023 1.407 4.279 6.759 98.5 8.927 10.776 121.8 W 1.7924 2.872 2.48 2.168 1.849 76 29.88 58 96.7 96.7 1175 13 KAPC elev: 15 ft
24619 4:06:20 PM STOCK ELIMINATOR Steve Valkanoff 7573 R/SA T4 R 14.05 0.296 1.857 5.232 8.106 85.22 10.612 12.753 105.12 L -2.4422 3.375 2.874 2.506 2.141 76 29.88 58 96.7 96.7 1175 13 KAPC elev: 15 ft
24618 4:06:20 PM STOCK ELIMINATOR Michael Hakkert 7965 B/SA T4 L 11.25 0.049 1.535 4.359 6.743 103.18 8.804 10.558 128.3 W 2.4422 2.824 2.384 2.061 1.754 76 29.88 58 96.7 96.7 1175 13 KAPC elev: 15 ft
24621 4:07:18 PM STOCK ELIMINATOR Pete Lanciers 7801 E/SA T4 R 11.7 -0.038 1.456 4.433 6.98 96.02 9.201 11.091 119.19 L -0.8662 2.977 2.547 2.221 1.89 76 29.88 58 96.7 96.7 1175 13 KAPC elev: 15 ft
24620 4:07:18 PM STOCK ELIMINATOR Gregg Luneack 7031 A/SA T4 L 11 0.023 1.352 4.063 6.394 105.02 8.427 10.164 129.39 W 0.8662 2.711 2.331 2.033 1.737 76 29.88 58 96.7 96.7 1175 13 KAPC elev: 15 ft
24623 4:08:08 PM STOCK ELIMINATOR Earl Snow Sr 7945 I/SA T4 R 12.3 0.023 1.532 4.646 7.35 90.45 9.714 11.744 110.61 L -1.1799 3.114 2.704 2.364 2.03 76 29.88 58 96.7 96.7 1175 13 KAPC elev: 15 ft
24622 4:08:08 PM STOCK ELIMINATOR Don Keen 7797 C/S T4 L 11.35 0.084 1.386 4.228 6.636 101.86 8.725 10.504 126.4 W 1.1799 2.842 2.408 2.089 1.779 76 29.88 58 96.7 96.7 1175 13 KAPC elev: 15 ft
24624 4:09:01 PM STOCK ELIMINATOR Richie Pauley 7593 C/SA T4 L 11.4 -0.058 1.388 4.232 6.656 101.4 8.757 10.546 125.89 L -0.7438 2.844 2.424 2.101 1.789 76 29.88 58 96.7 96.7 1175 13 KAPC elev: 15 ft
24625 4:09:01 PM STOCK ELIMINATOR Karen Comstock 771C FS/A T4 R 9.7 0.222 1.654 4.251 6.295 121.03 8.045 9.523 152.57 W 0.7438 2.597 2.044 1.75 1.478 76 29.88 58 96.7 96.7 1175 13 KAPC elev: 15 ft
24626 4:09:53 PM STOCK ELIMINATOR Lindy Lindholm 754 FS/C T4 L 10.3 -0.07 1.282 3.819 5.993 112.26 7.894 9.504 140.15 W 1.5877 2.537 2.174 1.901 1.61 76 29.88 58 96.7 96.7 1175 13 KAPC elev: 15 ft
24627 4:09:53 PM STOCK ELIMINATOR Debbie Hewes 7961 D/SA T4 R 11.55 0.082 1.475 4.401 6.905 97.96 9.083 10.939 121.06 L -1.5877 2.926 2.504 2.178 1.856 76 29.88 58 96.7 96.7 1175 13 KAPC elev: 15 ft
24629 4:10:20 PM STOCK ELIMINATOR Phil Mandella Jr 732 G/SA T4 R 12 0.049 1.489 4.492 7.086 94.12 9.354 11.296 114.17 L -1.5745 3.003 2.594 2.268 1.942 76 29.88 58 96.7 96.7 1175 13 KAPC elev: 15 ft
24628 4:10:20 PM STOCK ELIMINATOR Justin Lamb 1 FS/D T4 L 10.6 0.035 1.307 3.908 6.143 109.44 8.088 9.736 136.84 W 1.5745 2.601 2.235 1.945 1.648 76 29.88 58 96.7 96.7 1175 13 KAPC elev: 15 ft
24630 4:11:34 PM STOCK ELIMINATOR Scott Burton 5009 B/SA T4 R 11.25 0.059 1.297 4.01 6.351 104.29 8.4 10.146 129 W 0 2.713 2.341 2.049 1.746 76 29.88 58 96.7 96.7 1175 13 KAPC elev: 15 ft
24631 4:12:26 PM SUPER STREET MArk Beavin H730 SST T4 L 10.9 0.116 1.526 4.397 6.852 99.68 9 11.006 104.73 L -0.1023 2.871 2.455 2.148 2.006 76 29.88 58 96.7 96.7 1175 13 KAPC elev: 15 ft
24632 4:12:26 PM SUPER STREET Kenny Snow 751X SST T4 R 10.9 0.038 1.729 5.025 7.352 107.37 9.316 10.982 135.17 W 0.1023 3.296 2.327 1.964 1.666 76 29.88 58 96.7 96.7 1175 13 KAPC elev: 15 ft
24633 4:13:24 PM SUPER STREET Ron Schiel 6311 SST T4 L 10.9 0.269 1.475 5.086 7.524 109.54 9.374 10.881 150.97 L -0.1013 3.611 2.438 1.85 1.507 76 29.88 58 96.7 96.7 1175 13 KAPC elev: 15 ft
24634 4:13:24 PM SUPER STREET Don Riley 711R SST T4 R 10.9 0.014 2.011 5.441 7.675 113.53 9.509 11.035 148.12 W 0.1013 3.43 2.234 1.834 1.526 76 29.88 58 96.7 96.7 1175 13 KAPC elev: 15 ft
24636 4:14:07 PM SUPER STREET Gary Hardee 7042 SST T4 R 10.9 -0.16 1.632 4.859 7.246 104.76 9.25 10.932 134.51 W 0.1448 3.227 2.387 2.004 1.682 76 29.88 58 96.7 96.7 1175 13 KAPC elev: 15 ft
24635 4:14:07 PM SUPER STREET Andrew Olson 7085 SST T4 L 10.9 0.02 1.661 4.818 7.203 104.6 9.211 10.896 134.07 L -0.1448 3.157 2.385 2.008 1.685 76 29.88 58 96.7 96.7 1175 13 KAPC elev: 15 ft
24638 4:14:47 PM SUPER STREET Phillip Greer 6931 SST T4 R 10.9 0.021 1.832 5.189 7.431 112.02 9.302 10.876 143.35 L -0.0466 3.357 2.242 1.871 1.574 76 29.88 58 96.7 96.7 1175 13 KAPC elev: 15 ft
24637 4:14:47 PM SUPER STREET   J749 SST T4 L 0 0.02 1.45 4.332 6.816 98.33 8.984 10.831 121.84 W 0.0466 2.882 2.484 2.168 1.847 76 29.88 58 96.7 96.7 1175 13 KAPC elev: 15 ft
24640 4:15:40 PM SUPER STREET Ryan Giacone 72 SST T4 R 10.9 0.032 1.757 5.413 7.677 115.21 9.454 10.912 155.87 L -0.0125 3.656 2.264 1.777 1.458 76 29.88 58 96.7 96.7 1175 13 KAPC elev: 15 ft
24639 4:15:40 PM SUPER STREET Greg Ventura 74 SST T4 L 10.9 0.016 1.658 5.179 7.513 110.87 9.375 10.916 147.21 W 0.0125 3.521 2.334 1.862 1.541 76 29.88 58 96.7 96.7 1175 13 KAPC elev: 15 ft
24642 4:16:29 PM SUPER STREET Jimmy Galante 7231 SST T4 R 10.9 0.044 1.769 5.145 7.461 110.14 9.344 10.903 145.8 L -0.0603 3.376 2.316 1.883 1.559 76 29.88 58 96.7 96.7 1175 13 KAPC elev: 15 ft
24641 4:16:29 PM SUPER STREET Harlan Tucker 78 SST T4 L 10.9 0.028 1.477 4.782 7.232 104.7 9.213 10.859 137.53 W 0.0603 3.305 2.45 1.981 1.646 76 29.88 58 96.7 96.7 1175 13 KAPC elev: 15 ft
24643 4:17:19 PM SUPER STREET Scott Brown 714B SST T4 L 10.9 0.044 9.199 9.199 9.199 106.71 9.199 10.852 136.8 W 0.1013 0 0 0 1.653 76 29.88 58 96.7 96.7 1175 13 KAPC elev: 15 ft
24644 4:17:19 PM SUPER STREET David Adams 739 SST T4 R 10.9 0 9.455 9.455 9.455 110.83 9.455 10.997 146.34 L -0.1013 0 0 0 1.542 76 29.88 58 96.7 96.7 1175 13 KAPC elev: 15 ft
24646 4:17:38 PM SUPER STREET Ted Seipel 7829 SST T4 R 10.9 0.034 1.664 4.788 7.213 103.6 9.24 10.948 132.23 W 6.6479 3.124 2.425 2.027 1.708 76 29.88 58 96.7 96.7 1175 13 KAPC elev: 15 ft
24645 4:17:38 PM SUPER STREET Dan Bagwell 739E SST T4 L 10.9 0.083 2.366 6.817 10.515 63.69 14.253 17.546 69.08 L -6.6479 4.451 3.698 3.738 3.293 76 29.88 58 96.7 96.7 1175 13 KAPC elev: 15 ft
24648 4:18:55 PM SUPER STREET Matt Blodgett 7061 SST T4 R 10.9 0.025 1.722 4.984 7.291 108.46 9.229 10.864 137.93 W 0.0497 3.262 2.307 1.938 1.635 76 29.88 58 96.7 96.7 1175 13 KAPC elev: 15 ft
24647 4:18:55 PM SUPER STREET Mark Simonian 706H SST T4 L 10.9 0.021 2.039 5.252 7.482 112.38 9.35 10.917 144.29 L -0.0497 3.213 2.23 1.868 1.567 76 29.88 58 96.7 96.7 1175 13 KAPC elev: 15 ft
24650 4:19:46 PM SUPER STREET Nikki Cannon 681N SST T4 R 10.9 -0.065 1.56 5.253 7.587 112.65 9.4 10.888 152.8 L -0.1016 3.693 2.334 1.813 1.488 76 29.88 58 96.7 96.7 1175 13 KAPC elev: 15 ft
24649 4:19:46 PM SUPER STREET Dan Bain 7159 SST T4 L 10.9 -0.195 1.697 4.876 7.226 106.04 9.222 10.917 132.59 W 0.1016 3.179 2.35 1.996 1.695 76 29.88 58 96.7 96.7 1175 13 KAPC elev: 15 ft
24651 4:20:32 PM SUPER STREET Mel LeForbes 7687 SST T4 L 10.9 0.054 1.617 5.004 7.432 107.04 9.355 10.948 142.16 L -0.0484 3.387 2.428 1.923 1.593 76 29.88 58 96.7 96.7 1175 13 KAPC elev: 15 ft
24652 4:20:32 PM SUPER STREET Matt Hartzell 7257 SST T4 R 10.9 0.011 1.681 4.907 7.283 105.5 9.27 10.943 135.13 W 0.0484 3.226 2.376 1.987 1.673 76 29.88 58 96.7 96.7 1175 13 KAPC elev: 15 ft
24653 4:22:04 PM SUPER STREET Karen Rizzoli D703 SST T4 R 10.9 0.03 1.38 4.029 6.295 108.18 8.269 9.95 134.08 W 0 2.649 2.266 1.974 1.681 76 29.88 58 96.7 96.7 1175 13 KAPC elev: 15 ft
24654 4:23:01 PM SUPER STREET Chris Cannon II 6569 SST T4 L 10.9 -0.296 1.508 5.193 7.66 111.28 9.462 10.919 156.34 W 0 3.685 2.467 1.802 1.457 76 29.88 58 96.7 96.7 1175 13 KAPC elev: 15 ft
24656 4:24:18 PM SUPER COMP Don Barton 7028 SC T4 R 8.9 0.048 1.433 4.345 6.161 139.92 7.656 8.919 177.7 W 0.0652 2.912 1.816 1.495 1.263 76 29.88 58 96.7 96.7 1175 13 KAPC elev: 15 ft
24655 4:24:18 PM SUPER COMP   7117 SC T4 L 0 0.214 1.281 3.627 5.61 123.6 7.34 8.818 151.85 L -0.0652 2.346 1.983 1.73 1.478 76 29.88 58 96.7 96.7 1175 13 KAPC elev: 15 ft
24657 4:25:26 PM SUPER COMP Steve Parsons 701Y SC T4 L 8.9 0.006 1.496 4.221 6.077 136.1 7.615 8.898 176.21 W 0.0033 2.725 1.856 1.538 1.283 76 29.88 58 96.7 96.7 1175 13 KAPC elev: 15 ft
24658 4:25:26 PM SUPER COMP Keith Winters 701D SC T4 R 8.9 -0.004 1.645 4.299 6.12 138.22 7.636 8.911 177.02 L -0.0033 2.654 1.821 1.516 1.275 76 29.88 58 96.7 96.7 1175 13 KAPC elev: 15 ft
24659 4:26:19 PM SUPER COMP Greg Krause 569 SC T4 L 8.9 0.006 1.449 4.277 6.123 138 7.63 8.884 180.45 L -0.0172 2.828 1.846 1.507 1.254 76 29.88 58 96.7 96.7 1175 13 KAPC elev: 15 ft
24660 4:26:19 PM SUPER COMP Eric Reyes 7644 SC T4 R 8.9 -0.016 1.695 4.305 6.109 139.18 7.617 8.889 177.44 W 0.0172 2.61 1.804 1.508 1.272 76 29.88 58 96.7 96.7 1175 13 KAPC elev: 15 ft
24662 4:27:11 PM SUPER COMP Kevin Romfo 7719 SC T4 R 8.9 0.04 1.306 4.041 5.954 131.5 7.549 8.891 168.14 L -0.0051 2.735 1.913 1.595 1.342 76 29.88 58 96.7 96.7 1175 13 KAPC elev: 15 ft
24661 4:27:11 PM SUPER COMP Greg Boutte 76 SC T4 L 8.9 0.009 1.461 4.301 6.143 138.09 7.654 8.917 178.47 W 0.0051 2.84 1.842 1.511 1.263 76 29.88 58 96.7 96.7 1175 13 KAPC elev: 15 ft
24664 4:27:57 PM SUPER COMP Lynn Welfringer 773L SC T4 R 8.9 0.002 1.287 3.651 5.626 124.6 7.341 8.832 147.78 W 0.0757 2.364 1.975 1.715 1.491 76 29.88 58 96.7 96.7 1175 13 KAPC elev: 15 ft
24663 4:27:57 PM SUPER COMP George Garbiso 785 SC T4 L 8.9 0.036 1.391 4.151 6.037 135.62 7.578 8.873 173.72 L -0.0757 2.76 1.886 1.541 1.295 76 29.88 58 96.7 96.7 1175 13 KAPC elev: 15 ft
24665 4:28:48 PM SUPER COMP Paige Lundeen 7600 SC T4 L 8.9 -0.019 1.54 4.276 6.091 139.37 7.596 8.865 177.3 W 0.0456 2.736 1.815 1.505 1.269 76 29.88 58 96.7 96.7 1175 13 KAPC elev: 15 ft
24666 4:28:48 PM SUPER COMP Allison McKoane 7002 SC T4 R 8.9 0.003 1.535 4.367 6.18 140.77 7.656 8.888 183.62 L -0.0456 2.832 1.813 1.476 1.232 76 29.88 58 96.7 96.7 1175 13 KAPC elev: 15 ft
24667 4:29:41 PM SUPER COMP Jason Rosenbaum 775T SC T4 L 8.9 0.016 1.329 3.881 5.834 127.52 7.493 8.898 160.38 W 0.0025 2.552 1.953 1.659 1.405 76 29.88 58 96.7 96.7 1175 13 KAPC elev: 15 ft
24668 4:29:41 PM SUPER COMP Beau Hicks 7696 SC T4 R 8.9 0 1.444 4.103 5.969 134.64 7.53 8.916 160.75 L -0.0025 2.659 1.866 1.561 1.386 76 29.88 58 96.7 96.7 1175 13 KAPC elev: 15 ft
24669 4:30:46 PM SUPER COMP Ken Mostowich 6173 SC T4 L 8.9 0.019 1.328 4.187 6.142 134.94 7.652 8.885 183.97 L -0.3326 2.859 1.955 1.51 1.233 76 29.88 58 96.7 96.7 1175 13 KAPC elev: 15 ft
24670 4:30:46 PM SUPER COMP Barry Willoughby 7888 SC T4 R 8.9 -0.224 1.457 4.129 5.966 136.68 7.504 8.796 175 W 0.3326 2.672 1.837 1.538 1.292 76 29.88 58 96.7 96.7 1175 13 KAPC elev: 15 ft
24671 4:32:07 PM SUPER COMP Justin Rebrovich 7603 SC T4 L 8.9 0.026 1.225 3.889 5.872 125.99 7.531 8.91 164.35 L -0.0718 2.664 1.983 1.659 1.379 76 29.88 58 96.7 96.7 1175 13 KAPC elev: 15 ft
24672 4:32:07 PM SUPER COMP John Randell 7911 SC T4 R 8.9 -0.005 1.305 3.812 5.785 126.35 7.456 8.87 159.49 W 0.0718 2.507 1.973 1.671 1.414 76 29.88 58 96.7 96.7 1175 13 KAPC elev: 15 ft
24673 4:32:43 PM SUPER COMP Steve Johnson 745 SC T4 L 8.9 0.018 1.405 4.081 5.97 132.97 7.551 8.885 168.53 L -0.0387 2.676 1.889 1.581 1.334 76 29.88 58 96.7 96.7 1175 13 KAPC elev: 15 ft
24674 4:32:43 PM SUPER COMP Kenny Christensen 7834 SC T4 R 8.9 0.014 1.416 4.089 5.967 133.84 7.534 8.851 171.38 W 0.0387 2.673 1.878 1.567 1.317 76 29.88 58 96.7 96.7 1175 13 KAPC elev: 15 ft
24676 4:34:09 PM SUPER COMP Peter Biondo 1136 SC T4 R 8.9 0.014 1.621 4.435 6.241 140.8 7.713 8.932 185.66 L -0.0518 2.814 1.806 1.472 1.219 76 29.88 58 96.7 96.7 1175 13 KAPC elev: 15 ft
24675 4:34:09 PM SUPER COMP Marko Perivolaris 6 SC T4 L 8.9 0.011 1.493 4.359 6.191 141.03 7.659 8.884 184.35 W 0.0518 2.866 1.832 1.468 1.225 76 29.88 58 96.7 96.7 1175 13 KAPC elev: 15 ft
24677 4:36:09 PM SUPER COMP Matt Hartzell 7257 SC T4 L 8.9 0.027 1.42 4.245 6.109 137.6 7.62 8.88 178.99 W 0 2.825 1.864 1.511 1.26 76 29.88 58 96.7 96.7 1175 13 KAPC elev: 15 ft
24678 4:36:58 PM SUPER STOCK Kyle Rizzoli 73 SS/CA T4 L 10.05 -0.01 1.278 3.807 5.957 113.73 7.827 9.415 141.88 W 1.7892 2.529 2.15 1.87 1.588 76 29.88 58 96.7 96.7 1175 13 KAPC elev: 15 ft
24679 4:36:58 PM SUPER STOCK Douglas Colley 7922 SS/VX T4 R 11.6 0.054 1.459 4.495 7.04 96.06 9.254 11.14 119.43 L -1.7892 3.036 2.545 2.214 1.886 76 29.88 58 96.7 96.7 1175 13 KAPC elev: 15 ft
24681 4:38:18 PM SUPER STOCK Don Keen 75 SS/KA T4 R 11.25 0.031 1.394 4.154 6.523 103.11 8.591 10.355 127.19 W 6.4062 2.76 2.369 2.068 1.764 76 29.88 58 96.7 96.7 1175 13 KAPC elev: 15 ft
24680 4:38:18 PM SUPER STOCK Anthony Baeza 7513 SS/J T4 L 10.8 3.093 3.735 7.099 9.667 96.67 11.851 13.699 121.7 L -6.4062 3.364 2.568 2.184 1.848 76 29.88 58 96.7 96.7 1175 13 KAPC elev: 15 ft
24682 4:39:14 PM SPORTSMAN MOTORCYCLE Manny Taylor 7777 SMC T4 L 0 0.229 1.243 3.506 5.485 122.74 7.253 8.768 146 W 0.8031 2.263 1.979 1.768 1.515 76 29.88 58 96.7 96.7 1175 13 KAPC elev: 15 ft
24683 4:39:14 PM SPORTSMAN MOTORCYCLE D.J. Miclette 754 SMC T4 R 0 0.023 1.453 4.006 6.193 111.46 8.127 9.777 138.54 L -0.8031 2.553 2.187 1.934 1.65 76 29.88 58 96.7 96.7 1175 13 KAPC elev: 15 ft
24684 4:39:44 PM SPORTSMAN MOTORCYCLE Pete Miclette Jr 7001 SMC T4 L 0 -0.009 1.237 3.492 5.43 126.13 7.13 8.591 153.33 W 0.2478 2.255 1.938 1.7 1.461 76 29.88 58 96.7 96.7 1175 13 KAPC elev: 15 ft
24685 4:39:44 PM SPORTSMAN MOTORCYCLE Dylan Hendrix 7010 SMC T4 R 0 0.032 1.299 3.607 5.578 124.1 7.308 8.797 150.45 L -0.2478 2.308 1.971 1.73 1.489 76 29.88 58 96.7 96.7 1175 13 KAPC elev: 15 ft
24687 4:40:25 PM SPORTSMAN MOTORCYCLE Gaston Evans G779 SMC T4 R 0 0.296 1.958 4.832 7.088 110.35 9.006 10.635 138.74 L -1.2855 2.874 2.256 1.918 1.629 76 29.88 58 96.7 96.7 1175 13 KAPC elev: 15 ft
24686 4:40:25 PM SPORTSMAN MOTORCYCLE Eric Jaquith 72 SMC T4 L 0 0.182 1.47 3.91 6.002 116.47 7.856 9.464 139 W 1.2855 2.44 2.092 1.854 1.608 76 29.88 58 96.7 96.7 1175 13 KAPC elev: 15 ft
24688 4:42:15 PM SPORTSMAN MOTORCYCLE Don DePeel 61 SMC T4 L 0 0.065 1.295 3.451 5.309 130.85 6.962 8.388 156.55 W 0.2511 2.156 1.858 1.653 1.426 76 29.88 58 96.7 96.7 1175 13 KAPC elev: 15 ft
24689 4:42:15 PM SPORTSMAN MOTORCYCLE Anthony Vanetti 330 SMC T4 R 0 0.052 1.216 3.396 5.452 120.16 7.202 8.652 156.14 L -0.2511 2.18 2.056 1.75 1.45 76 29.88 58 96.7 96.7 1175 13 KAPC elev: 15 ft
24690 4:44:04 PM TOP DRAGSTER Jon Bradford 7848 TD T4 L 0 0.035 1.007 2.647 3.968 188.57 5.087 6.031 238.47 W 0.7608 1.64 1.321 1.119 0.944 76 29.88 58 96.7 96.7 1175 13 KAPC elev: 15 ft
24691 4:44:04 PM TOP DRAGSTER Jeff Havens 6031 TD T4 R 0 0.015 1.042 2.834 4.354 161.75 5.672 6.811 196.24 L -0.7608 1.792 1.52 1.318 1.139 76 29.88 58 96.7 96.7 1175 13 KAPC elev: 15 ft
24692 4:45:25 PM TOP DRAGSTER Mark Colton 6087 TD T4 R 0 0.005 1.061 2.852 4.356 163.89 5.654 6.763 202.52 W 0 1.791 1.504 1.298 1.109 76 29.88 58 96.7 96.7 1175 13 KAPC elev: 15 ft
24694 4:47:32 PM TOP DRAGSTER Ed Schuck Jr 7706 TD T4 R 0 -0.094 1.071 3.042 4.72 147.01 6.167 7.402 182.13 W 0.1793 1.971 1.678 1.447 1.235 76 29.88 58 96.7 96.7 1175 13 KAPC elev: 15 ft
24693 4:47:32 PM TOP DRAGSTER Ed Hauter Jr 6092 TD T4 L 0 0.027 1.103 3.091 4.779 146.37 6.229 7.46 182.85 L -0.1793 1.988 1.688 1.45 1.231 76 29.88 58 96.7 96.7 1175 13 KAPC elev: 15 ft
24695 4:48:37 PM TOP DRAGSTER Duane Daniel 7074 TD T4 R 0 -0.038 1.059 2.956 4.576 151.8 5.978 7.17 189.02 W 0 1.897 1.62 1.402 1.192 76 29.88 58 96.7 96.7 1175 13 KAPC elev: 15 ft
24696 4:50:01 PM TOP DRAGSTER Phillip Duerr 7700 TD T4 L 0 0.528 1.098 2.971 4.729 131.93 6.294 7.574 177.18 L -1.3778 1.873 1.758 1.565 1.28 76 29.88 58 96.7 96.7 1175 13 KAPC elev: 15 ft
24697 4:50:01 PM TOP DRAGSTER Andy Spiegel 7160 TD T4 R 0 0.069 1.006 2.764 4.249 164.89 5.546 6.656 202.48 W 1.3778 1.758 1.485 1.297 1.11 76 29.88 58 96.7 96.7 1175 13 KAPC elev: 15 ft
24699 4:53:50 PM COMPETITION ELIMINATOR Tom Mettler 7098 PST T4 R 8.07 -0.012 1.043 3.014 4.682 147.39 6.124 7.343 185.08 W 0.5876 1.971 1.668 1.442 1.219 76 29.88 58 96.7 96.7 1175 13 KAPC elev: 15 ft
24698 4:53:50 PM COMPETITION ELIMINATOR Brad Brewer 7011 B/A T4 L 7.66 0.103 1.039 2.973 4.6 149.41 6.19 7.815 129.78 L -0.5876 1.934 1.627 1.59 1.625 76 29.88 58 96.7 96.7 1175 13 KAPC elev: 15 ft
24700 4:56:08 PM COMPETITION ELIMINATOR Brian Moscini 768M G/AA T4 L 8.87 -0.051 1.206 3.502 5.423 127.79 7.087 8.503 158.67 W 0 2.296 1.921 1.664 1.416 76 29.88 58 96.7 96.7 1175 13 KAPC elev: 15 ft
24701 4:57:01 PM COMPETITION ELIMINATOR Randy Jones 7230 C/TA T4 R 9.01 0.067 1.141 3.39 5.311 127.85 6.973 8.388 158.99 W 0 2.249 1.921 1.662 1.415 76 29.88 58 96.7 96.7 1175 13 KAPC elev: 15 ft
24703 4:58:00 PM SUPER GAS Janice Hogan 7186 SG T4 R 9.9 0.037 1.501 4.501 6.623 118.98 8.384 9.868 151.87 W 0.0188 3 2.122 1.761 1.484 76 29.88 58 96.7 96.7 1175 13 KAPC elev: 15 ft
24702 4:58:00 PM SUPER GAS Doug Romfo 7216 SG T4 L 9.9 0.042 1.814 4.884 6.883 127.27 8.519 9.881 166.09 L -0.0188 3.07 1.999 1.636 1.362 76 29.88 58 96.7 96.7 1175 13 KAPC elev: 15 ft
24705 4:58:43 PM SUPER GAS Roger Kato 7117 SG T4 R 9.9 0.014 1.712 5.036 7.008 130.91 8.577 9.862 176.97 W 0.0445 3.324 1.972 1.569 1.285 75 29.87 54 96.8 96.8 1129 9 KAPC elev: 15 ft
24704 4:58:43 PM SUPER GAS Kimberly Will 7471 SG T4 L 9.9 0.03 1.613 4.925 6.956 128.16 8.563 9.89 170.9 L -0.0445 3.312 2.031 1.607 1.327 75 29.87 54 96.8 96.8 1129 9 KAPC elev: 15 ft
24706 4:59:30 PM SUPER GAS     SG T4 L 0 0 1.465 4.126 6.356 110.3 8.284 9.92 137.74 L -0.0233 2.661 2.23 1.928 1.636 75 29.87 54 96.8 96.8 1129 9 KAPC elev: 15 ft
24707 4:59:30 PM SUPER GAS     SG T4 R 0 0.065 1.738 4.702 6.775 120.24 8.475 9.893 160.02 W 0.0233 2.964 2.073 1.7 1.418 75 29.87 54 96.8 96.8 1129 9 KAPC elev: 15 ft
24708 4:59:46 PM SUPER GAS Val Torres 7809 SG T4 L 9.9 -0.005 1.547 4.823 6.981 125.01 8.604 9.926 172.04 W 0.7618 3.276 2.158 1.623 1.322 75 29.87 54 96.8 96.8 1129 9 KAPC elev: 15 ft
24709 4:59:46 PM SUPER GAS Joe Greco 7138 SG T4 R 9.9 0.055 2.068 5.441 7.552 122.42 9.237 10.627 163.16 L -0.7618 3.373 2.111 1.685 1.39 75 29.87 54 96.8 96.8 1129 9 KAPC elev: 15 ft
24711 5:00:44 PM SUPER GAS Richard Stone 7558 SG T4 R 9.9 0.067 1.524 4.533 6.666 118.82 8.426 9.896 153.95 L -0.8575 3.009 2.133 1.76 1.47 75 29.87 54 96.8 96.8 1129 9 KAPC elev: 15 ft
24710 5:00:44 PM SUPER GAS Justin Strom 7576 SG T4 L 9.9 0.155 1.535 4.085 6.009 130.33 7.613 8.951 168.87 W 0.8575 2.55 1.924 1.604 1.338 75 29.87 54 96.8 96.8 1129 9 KAPC elev: 15 ft
24713 5:01:42 PM SUPER GAS Mike Boehner 5169 SG T4 R 9.9 0.012 1.707 4.86 6.84 128.76 8.456 9.801 168.43 W 0.0155 3.153 1.98 1.616 1.345 75 29.87 54 96.8 96.8 1129 9 KAPC elev: 15 ft
24712 5:01:42 PM SUPER GAS Chris Cannon 2 SG T4 L 9.9 0.02 1.513 4.877 6.914 128.6 8.504 9.808 173.81 L -0.0155 3.364 2.037 1.59 1.304 75 29.87 54 96.8 96.8 1129 9 KAPC elev: 15 ft
24715 5:02:30 PM SUPER GAS Mike Willoughby 745 SG T4 R 9.9 0.03 1.639 4.881 6.941 125.04 8.572 9.924 167.26 W 0.0173 3.242 2.06 1.631 1.352 75 29.87 54 96.8 96.8 1129 9 KAPC elev: 15 ft
24714 5:02:30 PM SUPER GAS Diana Anderson 6683 SG T4 L 9.9 0.116 1.511 4.685 6.748 123.37 8.44 9.855 159.61 L -0.0173 3.174 2.063 1.692 1.415 75 29.87 54 96.8 96.8 1129 9 KAPC elev: 15 ft
24716 5:03:32 PM SUPER GAS Larry Bradshaw 7332 SG T4 L 9.9 0.035 1.601 4.785 6.853 124.32 8.512 9.883 165.42 W 0.1922 3.184 2.068 1.659 1.371 75 29.87 54 96.8 96.8 1129 9 KAPC elev: 15 ft
24717 5:03:32 PM SUPER GAS Don Anderson 6832 SG T4 R 9.9 0.012 1.831 5.056 7.075 125.96 8.718 10.098 164.07 L -0.1922 3.225 2.019 1.643 1.38 75 29.87 54 96.8 96.8 1129 9 KAPC elev: 15 ft
24718 5:07:01 PM TOP SPORTSMAN Steve Galileo 7894 TS T4 L 0 -0.009 1.016 2.895 4.459 157.96 5.8 6.929 199.37 W 4.2738 1.879 1.564 1.341 1.129 75 29.87 54 96.8 96.8 1129 9 KAPC elev: 15 ft
24719 5:07:01 PM TOP SPORTSMAN Randy Balough 717 TS T4 R 0 0.014 1.09 4.077 6.75 91.46 9.107 11.179 107.33 L -4.2738 2.987 2.673 2.357 2.072 75 29.87 54 96.8 96.8 1129 9 KAPC elev: 15 ft
24720 5:09:14 PM TOP SPORTSMAN Paul Gladden 766M TS T4 L 0 0.025 1.058 2.922 4.46 158.54 5.787 6.915 199.94 L -0.8561 1.864 1.538 1.327 1.128 75 29.87 54 96.8 96.8 1129 9 KAPC elev: 15 ft
24721 5:09:14 PM TOP SPORTSMAN Chip Rumis 7449 TS T4 R 0 -0.203 1.008 2.715 4.109 177.74 5.293 6.287 227.27 W 0.8561 1.707 1.394 1.184 0.994 75 29.87 54 96.8 96.8 1129 9 KAPC elev: 15 ft
24722 5:44:09 PM TOP SPORTSMAN Raul Perez 721P TS T4 L 0 0.011 1.096 3.121 4.792 141.12 6.472 8.097 130.68 W 0 2.025 1.671 1.68 1.625 75 29.87 54 96.8 96.8 1129 9 KAPC elev: 15 ft
24723 6:19:35 PM TOP SPORTSMAN     TS T4 L 0 0.098 1.114 3.371 5.295 125.78 7.195 9.086 112.94 W 0.2983 2.257 1.924 1.9 1.891 74 29.87 52 97 97 1060 10 KAPC elev: 15 ft
24724 6:19:35 PM TOP SPORTSMAN     TS T4 R 0 0.122 1.028 2.942 4.989 108.35 7.191 9.36 98.75 L -0.2983 1.914 2.047 2.202 2.169 74 29.87 52 97 97 1060 10 KAPC elev: 15 ft
24726 6:22:01 PM PRO MOD Ed Thornton 1 PM Q2 R 0 0.053 1.053 2.714 3.944 203.28 4.974 5.829 262.49 W 0.2617 1.661 1.23 1.03 0.855 74 29.87 52 97 97 1060 10 KAPC elev: 15 ft
24725 6:22:01 PM PRO MOD Ed Marx 7602 PM Q2 L 0 0.112 1.017 2.668 3.972 190.08 5.085 6.031 236.8 L -0.2617 1.651 1.304 1.113 0.946 74 29.87 52 97 97 1060 10 KAPC elev: 15 ft
24728 6:24:27 PM PRO MOD Justin Wake 756 PM Q2 R 0 0.042 1.014 2.733 4.045 190.11 5.153 6.086 241.54 L -0.3162 1.719 1.312 1.108 0.933 74 29.87 52 97 97 1060 10 KAPC elev: 15 ft
24727 6:24:27 PM PRO MOD Jay Diedrich 7721 PM Q2 L 0 0.012 0.971 2.605 3.854 199.29 4.91 5.8 253.23 W 0.3162 1.634 1.249 1.056 0.89 74 29.87 52 97 97 1060 10 KAPC elev: 15 ft
24729 6:27:03 PM PRO MOD Roger Holder 24 PM Q2 L 0 0.089 1.053 2.963 4.936 112.37 7.046 9.103 104.61 L -2.9398 1.91 1.973 2.11 2.057 74 29.87 52 97 97 1060 10 KAPC elev: 15 ft
24730 6:27:03 PM PRO MOD Garrett Richards 6472 PM Q2 R 0 0.171 1.044 2.755 4.051 191.92 5.154 6.082 242.63 W 2.9398 1.711 1.296 1.103 0.928 74 29.87 52 97 97 1060 10 KAPC elev: 15 ft
24732 6:29:45 PM PRO MOD Rob Moore 7647 PM Q2 R 0 0.049 1.088 2.821 4.177 183.62 5.329 6.289 235.19 L -0.3594 1.733 1.356 1.152 0.96 74 29.87 52 97 97 1060 10 KAPC elev: 15 ft
24731 6:29:45 PM PRO MOD Michael Biehle II 4 PM Q2 L 0 0.11 0.989 2.589 3.863 194.3 4.952 5.869 245.9 W 0.3594 1.6 1.274 1.089 0.917 74 29.87 52 97 97 1060 10 KAPC elev: 15 ft
24733 6:32:42 PM PRO MOD Mike Maggio 2 PM Q2 L 0 0.086 1.014 2.663 4.177 147.2 5.807 7.456 127.64 L -1.7633 1.649 1.514 1.63 1.649 74 29.87 52 97 97 1060 10 KAPC elev: 15 ft
24734 6:32:42 PM PRO MOD Jeremy Hanger 750 PM Q2 R 0 0.056 0.995 2.607 3.823 204.88 4.855 5.723 260.41 W 1.7633 1.612 1.216 1.032 0.868 74 29.87 52 97 97 1060 10 KAPC elev: 15 ft
24735 6:36:00 PM TOP ALCOHOL FUNNY CAR   726 TAFC T0 R 0 0.165 0.971 2.563 3.824 193.38 4.976 6.159 177.74 W 0 1.592 1.261 1.152 1.183 74 29.87 52 97 97 1060 10 KAPC elev: 15 ft
24736 6:39:44 PM TOP ALCOHOL FUNNY CAR   7743 TAFC T0 R 0 0.147 1.043 2.671 3.927 197.62 4.991 5.977 212.9 W 0 1.628 1.256 1.064 0.986 74 29.87 52 97 97 1060 10 KAPC elev: 15 ft
24737 6:44:07 PM TOP ALCOHOL FUNNY CAR Bret Williamson 7238 TAFC T0 R 0 0.17 1 2.599 3.905 178.76 5.312 6.921 125.71 W 0 1.599 1.306 1.407 1.609 74 29.87 52 97 97 1060 10 KAPC elev: 15 ft

Sonoma Wed Night Facebook

Sac Raceway Facebook

Samoa Raceway Facebook

Redding Dragstrip Facebook